Observation data for Crane on 03/24/2019      Previous  Date  Next       Current Mesonet Observations  Soil Data  Daily Summary Page  Observations in Plain Language
KCR2 240500Z 18014KT 19/07 A3003 RMK A01 T01890066  RH  045%=      5-min Rain = 0
KCR2 240501Z 18014KT 19/07 A3003 RMK A01 T01900067  RH  045%=      5-min Rain = 0
KCR2 240502Z 17014KT 19/07 A3003 RMK A01 T01900069  RH  045%=      5-min Rain = 0
KCR2 240503Z 17013KT 19/07 A3003 RMK A01 T01900070  RH  046%=      5-min Rain = 0
KCR2 240504Z 18015KT 19/07 A3003 RMK A01 T01890071  RH  046%=      5-min Rain = 0
KCR2 240505Z 17015KT 19/07 A3003 RMK A01 T01890072  RH  046%=      5-min Rain = 0
KCR2 240506Z 17015KT 19/07 A3003 RMK A01 T01900073  RH  047%=      5-min Rain = 0
KCR2 240507Z 17016KT 19/08 A3003 RMK A01 T01900075  RH  047%=      5-min Rain = 0
KCR2 240508Z 18016KT 19/08 A3003 RMK A01 T01900077  RH  048%=      5-min Rain = 0
KCR2 240509Z 18016KT 19/08 A3002 RMK A01 T01890079  RH  049%=      5-min Rain = 0
KCR2 240510Z 17017KT 19/08 A3002 RMK A01 T01890080  RH  049%=      5-min Rain = 0
KCR2 240511Z 18017KT 19/08 A3002 RMK A01 T01900082  RH  049%=      5-min Rain = 0
KCR2 240512Z 18015KT 19/08 A3002 RMK A01 T01900083  RH  050%=      5-min Rain = 0
KCR2 240513Z 18016KT 19/08 A3002 RMK A01 T01890084  RH  050%=      5-min Rain = 0
KCR2 240514Z 18015KT 19/09 A3002 RMK A01 T01890085  RH  051%=      5-min Rain = 0
KCR2 240515Z 18017KT 19/09 A3002 RMK A01 T01880086  RH  051%=      5-min Rain = 0
KCR2 240516Z 18016KT 19/09 A3002 RMK A01 T01890087  RH  052%=      5-min Rain = 0
KCR2 240517Z 18016KT 19/09 A3002 RMK A01 T01880089  RH  052%=      5-min Rain = 0
KCR2 240518Z 18016KT 19/09 A3002 RMK A01 T01880090  RH  053%=      5-min Rain = 0
KCR2 240519Z 18016KT 19/09 A3002 RMK A01 T01880091  RH  053%=      5-min Rain = 0
KCR2 240520Z 18016KT 19/09 A3002 RMK A01 T01880092  RH  053%=      5-min Rain = 0
KCR2 240521Z 18017KT 19/09 A3002 RMK A01 T01880092  RH  054%=      5-min Rain = 0
KCR2 240522Z 17017KT 19/09 A3002 RMK A01 T01890093  RH  054%=      5-min Rain = 0
KCR2 240523Z 18017KT 19/09 A3002 RMK A01 T01880094  RH  054%=      5-min Rain = 0
KCR2 240524Z 18017KT 19/10 A3002 RMK A01 T01880095  RH  055%=      5-min Rain = 0
KCR2 240525Z 18015KT 19/10 A3002 RMK A01 T01880096  RH  055%=      5-min Rain = 0
KCR2 240526Z 17015KT 19/10 A3002 RMK A01 T01870096  RH  055%=      5-min Rain = 0
KCR2 240527Z 17018KT 19/10 A3002 RMK A01 T01860097  RH  056%=      5-min Rain = 0
KCR2 240528Z 17016KT 19/10 A3002 RMK A01 T01860098  RH  056%=      5-min Rain = 0
KCR2 240529Z 18017G23KT 19/10 A3002 RMK A01 T01860098  RH  057%=      5-min Rain = 0
KCR2 240530Z 18016G21KT 19/10 A3002 RMK A01 T01870099  RH  057%=      5-min Rain = 0
KCR2 240531Z 17017G24KT 19/10 A3002 RMK A01 T01870100  RH  057%=      5-min Rain = 0
KCR2 240532Z 18016KT 19/10 A3002 RMK A01 T01870101  RH  057%=      5-min Rain = 0
KCR2 240533Z 17017KT 19/10 A3002 RMK A01 T01860102  RH  058%=      5-min Rain = 0
KCR2 240534Z 18017KT 19/10 A3002 RMK A01 T01860103  RH  058%=      5-min Rain = 0
KCR2 240535Z 18017KT 19/10 A3002 RMK A01 T01860104  RH  059%=      5-min Rain = 0
KCR2 240536Z 18017KT 19/11 A3002 RMK A01 T01860105  RH  059%=      5-min Rain = 0
KCR2 240537Z 18018KT 19/11 A3002 RMK A01 T01860107  RH  060%=      5-min Rain = 0
KCR2 240538Z 18016KT 19/11 A3002 RMK A01 T01870108  RH  060%=      5-min Rain = 0
KCR2 240539Z 18017KT 19/11 A3002 RMK A01 T01860109  RH  061%=      5-min Rain = 0
KCR2 240540Z 18016KT 19/11 A3002 RMK A01 T01860110  RH  061%=      5-min Rain = 0
KCR2 240541Z 17016KT 19/11 A3002 RMK A01 T01860110  RH  061%=      5-min Rain = 0
KCR2 240542Z 18015KT 19/11 A3002 RMK A01 T01860110  RH  061%=      5-min Rain = 0
KCR2 240543Z 18017KT 19/11 A3001 RMK A01 T01860111  RH  062%=      5-min Rain = 0
KCR2 240544Z 18017KT 19/11 A3001 RMK A01 T01860111  RH  062%=      5-min Rain = 0
KCR2 240545Z 17015KT 19/11 A3001 RMK A01 T01860111  RH  062%=      5-min Rain = 0
KCR2 240546Z 18018KT 19/11 A3001 RMK A01 T01850111  RH  062%=      5-min Rain = 0
KCR2 240547Z 17015KT 19/11 A3001 RMK A01 T01850111  RH  062%=      5-min Rain = 0
KCR2 240548Z 18014KT 18/11 A3002 RMK A01 T01840111  RH  062%=      5-min Rain = 0
KCR2 240549Z 18015KT 18/11 A3002 RMK A01 T01840112  RH  063%=      5-min Rain = 0
KCR2 240550Z 18014KT 18/11 A3002 RMK A01 T01830112  RH  063%=      5-min Rain = 0
KCR2 240551Z 18017KT 18/11 A3001 RMK A01 T01830112  RH  064%=      5-min Rain = 0
KCR2 240552Z 18017KT 18/11 A3001 RMK A01 T01830113  RH  064%=      5-min Rain = 0
KCR2 240553Z 18017KT 18/11 A3001 RMK A01 T01830113  RH  064%=      5-min Rain = 0
KCR2 240554Z 18017KT 18/11 A3001 RMK A01 T01830114  RH  064%=      5-min Rain = 0
KCR2 240555Z 18016KT 18/11 A3001 RMK A01 T01830114  RH  064%=      5-min Rain = 0
KCR2 240556Z 18016KT 18/12 A3001 RMK A01 T01840115  RH  064%=      5-min Rain = 0
KCR2 240557Z 18015KT 18/12 A3002 RMK A01 T01830115  RH  064%=      5-min Rain = 0
KCR2 240558Z 18016KT 18/12 A3002 RMK A01 T01830115  RH  065%=      5-min Rain = 0
KCR2 240559Z 18015KT 18/12 A3002 RMK A01 T01820115  RH  065%=      5-min Rain = 0
KCR2 240600Z 19014KT 18/12 A3002 RMK A01 T01820115  RH  065%=      5-min Rain = 0
KCR2 240601Z 18016KT 18/12 A3002 RMK A01 T01820116  RH  065%=      5-min Rain = 0
KCR2 240602Z 19014KT 18/12 A3002 RMK A01 T01820116  RH  065%=      5-min Rain = 0
KCR2 240603Z 18016KT 18/12 A3002 RMK A01 T01810116  RH  066%=      5-min Rain = 0
KCR2 240604Z 19015KT 18/12 A3002 RMK A01 T01810116  RH  066%=      5-min Rain = 0
KCR2 240605Z 18016KT 18/12 A3002 RMK A01 T01820117  RH  066%=      5-min Rain = 0
KCR2 240606Z 18015KT 18/12 A3002 RMK A01 T01810117  RH  066%=      5-min Rain = 0
KCR2 240607Z 18017KT 18/12 A3002 RMK A01 T01810117  RH  066%=      5-min Rain = 0
KCR2 240608Z 18016KT 18/12 A3002 RMK A01 T01810117  RH  066%=      5-min Rain = 0
KCR2 240609Z 18015KT 18/12 A3002 RMK A01 T01800117  RH  066%=      5-min Rain = 0
KCR2 240610Z 18016KT 18/12 A3002 RMK A01 T01800118  RH  067%=      5-min Rain = 0
KCR2 240611Z 18016KT 18/12 A3002 RMK A01 T01800118  RH  067%=      5-min Rain = 0
KCR2 240612Z 18017KT 18/12 A3002 RMK A01 T01800118  RH  067%=      5-min Rain = 0
KCR2 240613Z 18016KT 18/12 A3002 RMK A01 T01800119  RH  067%=      5-min Rain = 0
KCR2 240614Z 18018KT 18/12 A3002 RMK A01 T01790119  RH  068%=      5-min Rain = 0
KCR2 240615Z 18017G22KT 18/12 A3002 RMK A01 T01800119  RH  068%=      5-min Rain = 0
KCR2 240616Z 18015KT 18/12 A3002 RMK A01 T01790119  RH  068%=      5-min Rain = 0
KCR2 240617Z 18017KT 18/12 A3002 RMK A01 T01790120  RH  068%=      5-min Rain = 0
KCR2 240618Z 18016KT 18/12 A3002 RMK A01 T01790120  RH  068%=      5-min Rain = 0
KCR2 240619Z 19017KT 18/12 A3002 RMK A01 T01800121  RH  068%=      5-min Rain = 0
KCR2 240620Z 18014KT 18/12 A3002 RMK A01 T01800121  RH  068%=      5-min Rain = 0
KCR2 240621Z 18017KT 18/12 A3002 RMK A01 T01800122  RH  069%=      5-min Rain = 0
KCR2 240622Z 19016KT 18/12 A3002 RMK A01 T01800122  RH  069%=      5-min Rain = 0
KCR2 240623Z 19015KT 18/12 A3002 RMK A01 T01800123  RH  069%=      5-min Rain = 0
KCR2 240624Z 18017KT 18/12 A3002 RMK A01 T01790123  RH  070%=      5-min Rain = 0
KCR2 240625Z 19017KT 18/12 A3002 RMK A01 T01790123  RH  070%=      5-min Rain = 0
KCR2 240626Z 18018KT 18/12 A3002 RMK A01 T01790123  RH  070%=      5-min Rain = 0
KCR2 240627Z 19015KT 18/12 A3002 RMK A01 T01790124  RH  070%=      5-min Rain = 0
KCR2 240628Z 18016KT 18/12 A3002 RMK A01 T01780123  RH  070%=      5-min Rain = 0
KCR2 240629Z 18014KT 18/12 A3002 RMK A01 T01780123  RH  070%=      5-min Rain = 0
KCR2 240630Z 18013KT 18/12 A3002 RMK A01 T01770122  RH  070%=      5-min Rain = 0
KCR2 240631Z 18016KT 18/12 A3002 RMK A01 T01760122  RH  071%=      5-min Rain = 0
KCR2 240632Z 18018KT 18/12 A3002 RMK A01 T01760122  RH  071%=      5-min Rain = 0
KCR2 240633Z 18017KT 18/12 A3002 RMK A01 T01770122  RH  070%=      5-min Rain = 0
KCR2 240634Z 18017KT 18/12 A3002 RMK A01 T01770122  RH  070%=      5-min Rain = 0
KCR2 240635Z 18016KT 18/12 A3002 RMK A01 T01770122  RH  070%=      5-min Rain = 0
KCR2 240636Z 18014KT 18/12 A3002 RMK A01 T01770121  RH  070%=      5-min Rain = 0
KCR2 240637Z 18014KT 18/12 A3002 RMK A01 T01770122  RH  070%=      5-min Rain = 0
KCR2 240638Z 18015G20KT 18/12 A3002 RMK A01 T01760121  RH  070%=      5-min Rain = 0
KCR2 240639Z 18013KT 18/12 A3002 RMK A01 T01750121  RH  071%=      5-min Rain = 0
KCR2 240640Z 19012KT 18/12 A3002 RMK A01 T01760121  RH  071%=      5-min Rain = 0
KCR2 240641Z 18015G20KT 18/12 A3002 RMK A01 T01750122  RH  071%=      5-min Rain = 0
KCR2 240642Z 18014KT 17/12 A3002 RMK A01 T01740121  RH  071%=      5-min Rain = 0
KCR2 240643Z 19014KT 17/12 A3002 RMK A01 T01740122  RH  071%=      5-min Rain = 0
KCR2 240644Z 18015KT 17/12 A3002 RMK A01 T01740122  RH  072%=      5-min Rain = 0
KCR2 240645Z 18014KT 17/12 A3002 RMK A01 T01730122  RH  072%=      5-min Rain = 0
KCR2 240646Z 18014KT 17/12 A3002 RMK A01 T01740122  RH  072%=      5-min Rain = 0
KCR2 240647Z 18014KT 17/12 A3002 RMK A01 T01740122  RH  072%=      5-min Rain = 0
KCR2 240648Z 18014KT 17/12 A3002 RMK A01 T01730122  RH  072%=      5-min Rain = 0
KCR2 240649Z 18014KT 17/12 A3002 RMK A01 T01730122  RH  072%=      5-min Rain = 0
KCR2 240650Z 18013KT 17/12 A3002 RMK A01 T01730122  RH  072%=      5-min Rain = 0
KCR2 240651Z 18012KT 17/12 A3002 RMK A01 T01720122  RH  072%=      5-min Rain = 0
KCR2 240652Z 18013KT 17/12 A3002 RMK A01 T01710122  RH  073%=      5-min Rain = 0
KCR2 240653Z 18011KT 17/12 A3002 RMK A01 T01710122  RH  073%=      5-min Rain = 0
KCR2 240654Z 18012KT 17/12 A3002 RMK A01 T01720122  RH  072%=      5-min Rain = 0
KCR2 240655Z 19013KT 17/12 A3002 RMK A01 T01710122  RH  073%=      5-min Rain = 0
KCR2 240656Z 18012KT 17/12 A3002 RMK A01 T01710122  RH  073%=      5-min Rain = 0
KCR2 240657Z 18012KT 17/12 A3002 RMK A01 T01710122  RH  073%=      5-min Rain = 0
KCR2 240658Z 18014KT 17/12 A3002 RMK A01 T01710122  RH  073%=      5-min Rain = 0
KCR2 240659Z 18014KT 17/12 A3002 RMK A01 T01710123  RH  073%=      5-min Rain = 0
KCR2 240700Z 18013KT 17/12 A3002 RMK A01 T01710123  RH  073%=      5-min Rain = 0
KCR2 240701Z 18013KT 17/12 A3002 RMK A01 T01710123  RH  074%=      5-min Rain = 0
KCR2 240702Z 18012KT 17/12 A3002 RMK A01 T01710124  RH  074%=      5-min Rain = 0
KCR2 240703Z 18012KT 17/12 A3002 RMK A01 T01700124  RH  074%=      5-min Rain = 0
KCR2 240704Z 19014KT 17/12 A3002 RMK A01 T01690124  RH  075%=      5-min Rain = 0
KCR2 240705Z 18013KT 17/13 A3002 RMK A01 T01690125  RH  075%=      5-min Rain = 0
KCR2 240706Z 19013KT 17/13 A3002 RMK A01 T01700125  RH  075%=      5-min Rain = 0
KCR2 240707Z 19013KT 17/13 A3002 RMK A01 T01700125  RH  075%=      5-min Rain = 0
KCR2 240708Z 19013KT 17/13 A3002 RMK A01 T01690125  RH  075%=      5-min Rain = 0
KCR2 240709Z 19012KT 17/13 A3002 RMK A01 T01690125  RH  075%=      5-min Rain = 0
KCR2 240710Z 19011KT 17/13 A3002 RMK A01 T01680125  RH  076%=      5-min Rain = 0
KCR2 240711Z 19011KT 17/13 A3002 RMK A01 T01670126  RH  076%=      5-min Rain = 0
KCR2 240712Z 19012KT 17/13 A3002 RMK A01 T01680126  RH  076%=      5-min Rain = 0
KCR2 240713Z 19011KT 17/13 A3002 RMK A01 T01680126  RH  076%=      5-min Rain = 0
KCR2 240714Z 19012KT 17/13 A3002 RMK A01 T01670126  RH  076%=      5-min Rain = 0
KCR2 240715Z 19012KT 17/13 A3002 RMK A01 T01670126  RH  077%=      5-min Rain = 0
KCR2 240716Z 19012KT 17/13 A3002 RMK A01 T01680127  RH  077%=      5-min Rain = 0
KCR2 240717Z 19012KT 17/13 A3002 RMK A01 T01680127  RH  077%=      5-min Rain = 0
KCR2 240718Z 18013KT 17/13 A3002 RMK A01 T01680128  RH  077%=      5-min Rain = 0
KCR2 240719Z 19013KT 17/13 A3002 RMK A01 T01680128  RH  077%=      5-min Rain = 0
KCR2 240720Z 18014KT 17/13 A3002 RMK A01 T01690128  RH  077%=      5-min Rain = 0
KCR2 240721Z 18014KT 17/13 A3002 RMK A01 T01690128  RH  077%=      5-min Rain = 0
KCR2 240722Z 19013KT 17/13 A3002 RMK A01 T01690128  RH  077%=      5-min Rain = 0
KCR2 240723Z 19012KT 17/13 A3002 RMK A01 T01690128  RH  077%=      5-min Rain = 0
KCR2 240724Z 18012KT 17/13 A3002 RMK A01 T01690129  RH  077%=      5-min Rain = 0
KCR2 240725Z 19013KT 17/13 A3002 RMK A01 T01690129  RH  077%=      5-min Rain = 0
KCR2 240726Z 19014KT 17/13 A3002 RMK A01 T01690129  RH  077%=      5-min Rain = 0
KCR2 240727Z 19013KT 17/13 A3002 RMK A01 T01690129  RH  077%=      5-min Rain = 0
KCR2 240728Z 19012KT 17/13 A3002 RMK A01 T01690129  RH  077%=      5-min Rain = 0
KCR2 240729Z 19011KT 17/13 A3002 RMK A01 T01680129  RH  078%=      5-min Rain = 0
KCR2 240730Z 19012KT 17/13 A3002 RMK A01 T01680129  RH  078%=      5-min Rain = 0
KCR2 240731Z 19011KT 17/13 A3002 RMK A01 T01670129  RH  078%=      5-min Rain = 0
KCR2 240732Z 19012KT 17/13 A3002 RMK A01 T01670129  RH  078%=      5-min Rain = 0
KCR2 240733Z 19011KT 17/13 A3002 RMK A01 T01670130  RH  078%=      5-min Rain = 0
KCR2 240734Z 19012KT 17/13 A3002 RMK A01 T01670130  RH  079%=      5-min Rain = 0
KCR2 240735Z 19011KT 17/13 A3002 RMK A01 T01660130  RH  079%=      5-min Rain = 0
KCR2 240736Z 19011KT 17/13 A3002 RMK A01 T01660129  RH  079%=      5-min Rain = 0
KCR2 240737Z 19011KT 17/13 A3002 RMK A01 T01660130  RH  079%=      5-min Rain = 0
KCR2 240738Z 19010KT 17/13 A3002 RMK A01 T01660130  RH  079%=      5-min Rain = 0
KCR2 240739Z 19011KT 17/13 A3002 RMK A01 T01660130  RH  079%=      5-min Rain = 0
KCR2 240740Z 19010KT 17/13 A3002 RMK A01 T01660130  RH  079%=      5-min Rain = 0
KCR2 240741Z 19010KT 17/13 A3002 RMK A01 T01660130  RH  079%=      5-min Rain = 0
KCR2 240742Z 19010KT 17/13 A3002 RMK A01 T01650130  RH  080%=      5-min Rain = 0
KCR2 240743Z 19010KT 16/13 A3002 RMK A01 T01640130  RH  080%=      5-min Rain = 0
KCR2 240744Z 19011KT 16/13 A3002 RMK A01 T01640130  RH  080%=      5-min Rain = 0
KCR2 240745Z 19010KT 16/13 A3002 RMK A01 T01640130  RH  080%=      5-min Rain = 0
KCR2 240746Z 19011KT 16/13 A3002 RMK A01 T01630129  RH  080%=      5-min Rain = 0
KCR2 240747Z 19011KT 16/13 A3002 RMK A01 T01640130  RH  080%=      5-min Rain = 0
KCR2 240748Z 19011KT 16/13 A3002 RMK A01 T01630130  RH  081%=      5-min Rain = 0
KCR2 240749Z 19010KT 16/13 A3002 RMK A01 T01630130  RH  080%=      5-min Rain = 0
KCR2 240750Z 19010KT 16/13 A3002 RMK A01 T01630130  RH  081%=      5-min Rain = 0
KCR2 240751Z 19010KT 16/13 A3002 RMK A01 T01630130  RH  081%=      5-min Rain = 0
KCR2 240752Z 19010KT 16/13 A3002 RMK A01 T01620130  RH  081%=      5-min Rain = 0
KCR2 240753Z 19009KT 16/13 A3002 RMK A01 T01630129  RH  081%=      5-min Rain = 0
KCR2 240754Z 20009KT 16/13 A3002 RMK A01 T01620129  RH  081%=      5-min Rain = 0
KCR2 240755Z 20010KT 16/13 A3002 RMK A01 T01610129  RH  081%=      5-min Rain = 0
KCR2 240756Z 19010KT 16/13 A3002 RMK A01 T01610129  RH  081%=      5-min Rain = 0
KCR2 240757Z 19010KT 16/13 A3002 RMK A01 T01610130  RH  081%=      5-min Rain = 0
KCR2 240758Z 19010KT 16/13 A3002 RMK A01 T01610129  RH  081%=      5-min Rain = 0
KCR2 240759Z 20009KT 16/13 A3002 RMK A01 T01620130  RH  081%=      5-min Rain = 0
KCR2 240800Z 19009KT 16/13 A3002 RMK A01 T01620130  RH  081%=      5-min Rain = 0
KCR2 240801Z 20009KT 16/13 A3002 RMK A01 T01620130  RH  081%=      5-min Rain = 0
KCR2 240802Z 20009KT 16/13 A3002 RMK A01 T01610130  RH  082%=      5-min Rain = 0
KCR2 240803Z 20009KT 16/13 A3002 RMK A01 T01600129  RH  082%=      5-min Rain = 0
KCR2 240804Z 19009KT 16/13 A3002 RMK A01 T01600130  RH  082%=      5-min Rain = 0
KCR2 240805Z 19008KT 16/13 A3002 RMK A01 T01590130  RH  083%=      5-min Rain = 0
KCR2 240806Z 20008KT 16/13 A3002 RMK A01 T01590130  RH  082%=      5-min Rain = 0
KCR2 240807Z 19007KT 16/13 A3002 RMK A01 T01590129  RH  082%=      5-min Rain = 0
KCR2 240808Z 20008KT 16/13 A3002 RMK A01 T01590129  RH  083%=      5-min Rain = 0
KCR2 240809Z 20008KT 16/13 A3002 RMK A01 T01590130  RH  083%=      5-min Rain = 0
KCR2 240810Z 19008KT 16/13 A3002 RMK A01 T01590130  RH  083%=      5-min Rain = 0
KCR2 240811Z 20008KT 16/13 A3002 RMK A01 T01590131  RH  083%=      5-min Rain = 0
KCR2 240812Z 19008KT 16/13 A3002 RMK A01 T01590131  RH  083%=      5-min Rain = 0
KCR2 240813Z 20007KT 16/13 A3002 RMK A01 T01590131  RH  084%=      5-min Rain = 0
KCR2 240814Z 20008KT 16/13 A3002 RMK A01 T01590131  RH  083%=      5-min Rain = 0
KCR2 240815Z 20008KT 16/13 A3002 RMK A01 T01590131  RH  083%=      5-min Rain = 0
KCR2 240816Z 20007KT 16/13 A3002 RMK A01 T01600131  RH  083%=      5-min Rain = 0
KCR2 240817Z 20007KT 16/13 A3002 RMK A01 T01590131  RH  083%=      5-min Rain = 0
KCR2 240818Z 20007KT 16/13 A3002 RMK A01 T01590132  RH  084%=      5-min Rain = 0
KCR2 240819Z 20006KT 16/13 A3002 RMK A01 T01590131  RH  084%=      5-min Rain = 0
KCR2 240820Z 20006KT 16/13 A3002 RMK A01 T01580131  RH  084%=      5-min Rain = 0
KCR2 240821Z 20006KT 16/13 A3002 RMK A01 T01580131  RH  084%=      5-min Rain = 0
KCR2 240822Z 20006KT 16/13 A3002 RMK A01 T01570131  RH  084%=      5-min Rain = 0
KCR2 240823Z 20005KT 16/13 A3002 RMK A01 T01580131  RH  084%=      5-min Rain = 0
KCR2 240824Z 20005KT 16/13 A3002 RMK A01 T01570131  RH  084%=      5-min Rain = 0
KCR2 240825Z 20005KT 16/13 A3002 RMK A01 T01560130  RH  085%=      5-min Rain = 0
KCR2 240826Z 20005KT 16/13 A3002 RMK A01 T01550130  RH  085%=      5-min Rain = 0
KCR2 240827Z 20005KT 16/13 A3002 RMK A01 T01550130  RH  085%=      5-min Rain = 0
KCR2 240828Z 20005KT 16/13 A3002 RMK A01 T01550131  RH  086%=      5-min Rain = 0
KCR2 240829Z 20004KT 16/13 A3002 RMK A01 T01550130  RH  085%=      5-min Rain = 0
KCR2 240830Z 20005KT 15/13 A3002 RMK A01 T01540130  RH  085%=      5-min Rain = 0
KCR2 240831Z 20004KT 15/13 A3002 RMK A01 T01540130  RH  086%=      5-min Rain = 0
KCR2 240832Z 19004KT 15/13 A3002 RMK A01 T01530130  RH  086%=      5-min Rain = 0
KCR2 240833Z 20004KT 15/13 A3002 RMK A01 T01530130  RH  086%=      5-min Rain = 0
KCR2 240834Z 19005KT 15/13 A3002 RMK A01 T01530130  RH  086%=      5-min Rain = 0
KCR2 240835Z 20005KT 15/13 A3002 RMK A01 T01530130  RH  087%=      5-min Rain = 0
KCR2 240836Z 21004KT 15/13 A3002 RMK A01 T01520130  RH  087%=      5-min Rain = 0
KCR2 240837Z 22003KT 15/13 A3002 RMK A01 T01520130  RH  086%=      5-min Rain = 0
KCR2 240838Z 19004KT 15/13 A3002 RMK A01 T01520130  RH  086%=      5-min Rain = 0
KCR2 240839Z 19004KT 15/13 A3002 RMK A01 T01520130  RH  087%=      5-min Rain = 0
KCR2 240840Z 19003KT 15/13 A3002 RMK A01 T01520131  RH  087%=      5-min Rain = 0
KCR2 240841Z 19003KT 15/13 A3002 RMK A01 T01530132  RH  087%=      5-min Rain = 0
KCR2 240842Z 20005KT 15/13 A3002 RMK A01 T01530131  RH  087%=      5-min Rain = 0
KCR2 240843Z 20004KT 15/13 A3002 RMK A01 T01530132  RH  087%=      5-min Rain = 0
KCR2 240844Z 20005KT 15/13 A3002 RMK A01 T01530132  RH  087%=      5-min Rain = 0
KCR2 240845Z 20005KT 15/13 A3002 RMK A01 T01530133  RH  087%=      5-min Rain = 0
KCR2 240846Z 19005KT 15/13 A3002 RMK A01 T01540132  RH  087%=      5-min Rain = 0
KCR2 240847Z 20004KT 15/13 A3002 RMK A01 T01540132  RH  087%=      5-min Rain = 0
KCR2 240848Z 20004KT 15/13 A3002 RMK A01 T01530132  RH  087%=      5-min Rain = 0
KCR2 240849Z 21003KT 15/13 A3002 RMK A01 T01530131  RH  087%=      5-min Rain = 0
KCR2 240850Z 21004KT 15/13 A3002 RMK A01 T01520131  RH  087%=      5-min Rain = 0
KCR2 240851Z 21004KT 15/13 A3002 RMK A01 T01510131  RH  088%=      5-min Rain = 0
KCR2 240852Z 21003KT 15/13 A3002 RMK A01 T01510131  RH  088%=      5-min Rain = 0
KCR2 240853Z 21004KT 15/13 A3002 RMK A01 T01510131  RH  088%=      5-min Rain = 0
KCR2 240854Z 21003KT 15/13 A3002 RMK A01 T01510131  RH  088%=      5-min Rain = 0
KCR2 240855Z 21004KT 15/13 A3002 RMK A01 T01500131  RH  088%=      5-min Rain = 0
KCR2 240856Z 21004KT 15/13 A3002 RMK A01 T01500131  RH  088%=      5-min Rain = 0
KCR2 240857Z 21004KT 15/13 A3002 RMK A01 T01500131  RH  088%=      5-min Rain = 0
KCR2 240858Z 21004KT 15/13 A3002 RMK A01 T01500131  RH  088%=      5-min Rain = 0
KCR2 240859Z 22004KT 15/13 A3002 RMK A01 T01500130  RH  088%=      5-min Rain = 0
KCR2 240900Z 21004KT 15/13 A3002 RMK A01 T01490129  RH  088%=      5-min Rain = 0
KCR2 240901Z 21003KT 15/13 A3002 RMK A01 T01480130  RH  089%=      5-min Rain = 0
KCR2 240902Z 21004KT 15/13 A3002 RMK A01 T01480130  RH  089%=      5-min Rain = 0
KCR2 240903Z 21004KT 15/13 A3002 RMK A01 T01470129  RH  089%=      5-min Rain = 0
KCR2 240904Z 21004KT 15/13 A3002 RMK A01 T01470130  RH  089%=      5-min Rain = 0
KCR2 240905Z 22003KT 15/13 A3002 RMK A01 T01470130  RH  089%=      5-min Rain = 0
KCR2 240906Z 21003KT 15/13 A3002 RMK A01 T01470129  RH  089%=      5-min Rain = 0
KCR2 240907Z 22003KT 15/13 A3002 RMK A01 T01460129  RH  089%=      5-min Rain = 0
KCR2 240908Z 22004KT 15/13 A3002 RMK A01 T01460129  RH  090%=      5-min Rain = 0
KCR2 240909Z 22004KT 15/13 A3002 RMK A01 T01450130  RH  090%=      5-min Rain = 0
KCR2 240910Z 23003KT 15/13 A3002 RMK A01 T01450129  RH  090%=      5-min Rain = 0
KCR2 240911Z 22004KT 15/13 A3002 RMK A01 T01450129  RH  090%=      5-min Rain = 0
KCR2 240912Z 24002KT 15/13 A3002 RMK A01 T01450131  RH  091%=      5-min Rain = 0
KCR2 240913Z 24002KT 15/13 A3002 RMK A01 T01460130  RH  090%=      5-min Rain = 0
KCR2 240914Z 24002KT 15/13 A3002 RMK A01 T01450127  RH  089%=      5-min Rain = 0
KCR2 240915Z 26002KT 14/13 A3002 RMK A01 T01440127  RH  090%=      5-min Rain = 0
KCR2 240916Z 28002KT 14/13 A3002 RMK A01 T01440128  RH  090%=      5-min Rain = 0
KCR2 240917Z 29002KT 14/13 A3002 RMK A01 T01440129  RH  091%=      5-min Rain = 0
KCR2 240918Z 27002KT 14/13 A3002 RMK A01 T01430128  RH  090%=      5-min Rain = 0
KCR2 240919Z 27001KT 14/13 A3002 RMK A01 T01420126  RH  090%=      5-min Rain = 0
KCR2 240920Z 29001KT 14/13 A3002 RMK A01 T01420127  RH  091%=      5-min Rain = 0
KCR2 240921Z 30001KT 14/13 A3002 RMK A01 T01410126  RH  091%=      5-min Rain = 0
KCR2 240922Z 27001KT 14/13 A3002 RMK A01 T01400126  RH  091%=      5-min Rain = 0
KCR2 240923Z 23002KT 14/12 A3002 RMK A01 T01390124  RH  091%=      5-min Rain = 0
KCR2 240924Z 26003KT 14/13 A3002 RMK A01 T01390125  RH  091%=      5-min Rain = 0
KCR2 240925Z 27001KT 14/13 A3002 RMK A01 T01390125  RH  092%=      5-min Rain = 0
KCR2 240926Z 20002KT 14/12 A3002 RMK A01 T01380124  RH  091%=      5-min Rain = 0
KCR2 240927Z 21003KT 14/13 A3002 RMK A01 T01390128  RH  093%=      5-min Rain = 0
KCR2 240928Z 21005KT 14/13 A3002 RMK A01 T01410131  RH  094%=      5-min Rain = 0
KCR2 240929Z 20005KT 14/13 A3002 RMK A01 T01440134  RH  094%=      5-min Rain = 0
KCR2 240930Z 19005KT 15/14 A3002 RMK A01 T01460135  RH  094%=      5-min Rain = 0
KCR2 240931Z 19005KT 15/14 A3002 RMK A01 T01460135  RH  093%=      5-min Rain = 0
KCR2 240932Z 19007KT 15/14 A3002 RMK A01 T01470136  RH  093%=      5-min Rain = 0
KCR2 240933Z 19007KT 15/14 A3002 RMK A01 T01490137  RH  093%=      5-min Rain = 0
KCR2 240934Z 19006KT 15/14 A3002 RMK A01 T01500137  RH  092%=      5-min Rain = 0
KCR2 240935Z 20008KT 15/14 A3002 RMK A01 T01500136  RH  091%=      5-min Rain = 0
KCR2 240936Z 19008KT 15/14 A3002 RMK A01 T01510137  RH  092%=      5-min Rain = 0
KCR2 240937Z 19010KT 15/14 A3002 RMK A01 T01520138  RH  091%=      5-min Rain = 0
KCR2 240938Z 19009KT 15/14 A3002 RMK A01 T01520138  RH  091%=      5-min Rain = 0
KCR2 240939Z 20010KT 15/14 A3002 RMK A01 T01520138  RH  091%=      5-min Rain = 0
KCR2 240940Z 19010KT 15/14 A3002 RMK A01 T01520138  RH  091%=      5-min Rain = 0
KCR2 240941Z 19009KT 15/14 A3002 RMK A01 T01530138  RH  091%=      5-min Rain = 0
KCR2 240942Z 19010KT 15/14 A3002 RMK A01 T01530138  RH  091%=      5-min Rain = 0
KCR2 240943Z 19011KT 15/14 A3002 RMK A01 T01530138  RH  091%=      5-min Rain = 0
KCR2 240944Z 19011KT 15/14 A3002 RMK A01 T01530139  RH  091%=      5-min Rain = 0
KCR2 240945Z 19014KT 15/14 A3002 RMK A01 T01530139  RH  091%=      5-min Rain = 0
KCR2 240946Z 19014KT 15/14 A3002 RMK A01 T01540139  RH  091%=      5-min Rain = 0
KCR2 240947Z 19011KT 15/14 A3002 RMK A01 T01540139  RH  091%=      5-min Rain = 0
KCR2 240948Z 19012KT 15/14 A3002 RMK A01 T01540139  RH  091%=      5-min Rain = 0
KCR2 240949Z 19012KT 15/14 A3002 RMK A01 T01540139  RH  091%=      5-min Rain = 0
KCR2 240950Z 19013KT 15/14 A3002 RMK A01 T01540139  RH  091%=      5-min Rain = 0
KCR2 240951Z 19015KT 15/14 A3002 RMK A01 T01540139  RH  091%=      5-min Rain = 0
KCR2 240952Z 19015KT 15/14 A3002 RMK A01 T01540139  RH  091%=      5-min Rain = 0
KCR2 240953Z 19012KT 15/14 A3002 RMK A01 T01540139  RH  091%=      5-min Rain = 0
KCR2 240954Z 19012KT 15/14 A3002 RMK A01 T01530139  RH  091%=      5-min Rain = 0
KCR2 240955Z 19013KT 15/14 A3002 RMK A01 T01530139  RH  091%=      5-min Rain = 0
KCR2 240956Z 19016KT 15/14 A3002 RMK A01 T01530139  RH  091%=      5-min Rain = 0
KCR2 240957Z 19015KT 15/14 A3002 RMK A01 T01530139  RH  091%=      5-min Rain = 0
KCR2 240958Z 19016KT 15/14 A3002 RMK A01 T01530139  RH  091%=      5-min Rain = 0
KCR2 240959Z 19015KT 15/14 A3002 RMK A01 T01540139  RH  091%=      5-min Rain = 0
KCR2 241000Z 19015KT 15/14 A3002 RMK A01 T01540139  RH  091%=      5-min Rain = 0
KCR2 241001Z 19014KT 15/14 A3002 RMK A01 T01530139  RH  091%=      5-min Rain = 0
KCR2 241002Z 19013KT 15/14 A3002 RMK A01 T01530139  RH  091%=      5-min Rain = 0
KCR2 241003Z 20015KT 15/14 A3002 RMK A01 T01530139  RH  091%=      5-min Rain = 0
KCR2 241004Z 20013KT 15/14 A3002 RMK A01 T01530139  RH  091%=      5-min Rain = 0
KCR2 241005Z 19014KT 15/14 A3002 RMK A01 T01530139  RH  091%=      5-min Rain = 0
KCR2 241006Z 19015KT 15/14 A3002 RMK A01 T01530139  RH  091%=      5-min Rain = 0
KCR2 241007Z 19014KT 15/14 A3002 RMK A01 T01530139  RH  091%=      5-min Rain = 0
KCR2 241008Z 19014KT 15/14 A3002 RMK A01 T01530139  RH  092%=      5-min Rain = 0
KCR2 241009Z 19014KT 15/14 A3002 RMK A01 T01530139  RH  091%=      5-min Rain = 0
KCR2 241010Z 19015KT 15/14 A3002 RMK A01 T01530139  RH  091%=      5-min Rain = 0
KCR2 241011Z 19015KT 15/14 A3002 RMK A01 T01530139  RH  091%=      5-min Rain = 0
KCR2 241012Z 19014G19KT 15/14 A3002 RMK A01 T01530139  RH  091%=      5-min Rain = 0
KCR2 241013Z 19013KT 15/14 A3002 RMK A01 T01530138  RH  091%=      5-min Rain = 0
KCR2 241014Z 19013KT 15/14 A3002 RMK A01 T01520138  RH  091%=      5-min Rain = 0
KCR2 241015Z 19015KT 15/14 A3002 RMK A01 T01520139  RH  092%=      5-min Rain = 0
KCR2 241016Z 20014KT 15/14 A3002 RMK A01 T01520139  RH  092%=      5-min Rain = 0
KCR2 241017Z 19012KT 15/14 A3002 RMK A01 T01520139  RH  091%=      5-min Rain = 0
KCR2 241018Z 20013KT 15/14 A3002 RMK A01 T01520138  RH  091%=      5-min Rain = 0
KCR2 241019Z 20015KT 15/14 A3002 RMK A01 T01520138  RH  092%=      5-min Rain = 0
KCR2 241020Z 19012KT 15/14 A3002 RMK A01 T01520138  RH  092%=      5-min Rain = 0
KCR2 241021Z 19011KT 15/14 A3002 RMK A01 T01520138  RH  092%=      5-min Rain = 0
KCR2 241022Z 19013KT 15/14 A3002 RMK A01 T01510137  RH  092%=      5-min Rain = 0
KCR2 241023Z 19015KT 15/14 A3002 RMK A01 T01510138  RH  092%=      5-min Rain = 0
KCR2 241024Z 20012KT 15/14 A3002 RMK A01 T01520139  RH  092%=      5-min Rain = 0
KCR2 241025Z 20011KT 15/14 A3002 RMK A01 T01520139  RH  092%=      5-min Rain = 0
KCR2 241026Z 19011KT 15/14 A3002 RMK A01 T01520138  RH  091%=      5-min Rain = 0
KCR2 241027Z 19012KT 15/14 A3002 RMK A01 T01510138  RH  092%=      5-min Rain = 0
KCR2 241028Z 19012KT 15/14 A3002 RMK A01 T01500137  RH  092%=      5-min Rain = 0
KCR2 241029Z 19011KT 15/14 A3002 RMK A01 T01500137  RH  092%=      5-min Rain = 0
KCR2 241030Z 19012KT 15/14 A3002 RMK A01 T01500137  RH  092%=      5-min Rain = 0
KCR2 241031Z 20011KT 15/14 A3002 RMK A01 T01500138  RH  092%=      5-min Rain = 0
KCR2 241032Z 19011KT 15/14 A3002 RMK A01 T01500137  RH  092%=      5-min Rain = 0
KCR2 241033Z 20012KT 15/14 A3002 RMK A01 T01500137  RH  092%=      5-min Rain = 0
KCR2 241034Z 20012KT 15/14 A3002 RMK A01 T01500137  RH  092%=      5-min Rain = 0
KCR2 241035Z 20012KT 15/14 A3002 RMK A01 T01500138  RH  092%=      5-min Rain = 0
KCR2 241036Z 19010KT 15/14 A3002 RMK A01 T01500138  RH  092%=      5-min Rain = 0
KCR2 241037Z 19010KT 15/14 A3002 RMK A01 T01500137  RH  092%=      5-min Rain = 0
KCR2 241038Z 20010KT 15/14 A3002 RMK A01 T01500138  RH  092%=      5-min Rain = 0
KCR2 241039Z 20010KT 15/14 A3002 RMK A01 T01490137  RH  092%=      5-min Rain = 0
KCR2 241040Z 20011KT 15/14 A3002 RMK A01 T01500138  RH  093%=      5-min Rain = 0
KCR2 241041Z 20008KT 15/14 A3002 RMK A01 T01500138  RH  093%=      5-min Rain = 0
KCR2 241042Z 20010KT 15/14 A3002 RMK A01 T01500137  RH  092%=      5-min Rain = 0
KCR2 241043Z 20008KT 15/14 A3002 RMK A01 T01500138  RH  093%=      5-min Rain = 0
KCR2 241044Z 20007KT 15/14 A3002 RMK A01 T01490137  RH  092%=      5-min Rain = 0
KCR2 241045Z 19007KT 15/14 A3002 RMK A01 T01490137  RH  093%=      5-min Rain = 0
KCR2 241046Z 20007KT 15/14 A3002 RMK A01 T01490137  RH  093%=      5-min Rain = 0
KCR2 241047Z 20006KT 15/14 A3003 RMK A01 T01480136  RH  093%=      5-min Rain = 0
KCR2 241048Z 21005KT 15/14 A3003 RMK A01 T01480136  RH  093%=      5-min Rain = 0
KCR2 241049Z 21005KT 15/14 A3003 RMK A01 T01470136  RH  093%=      5-min Rain = 0
KCR2 241050Z 21004KT 15/14 A3003 RMK A01 T01470136  RH  093%=      5-min Rain = 0
KCR2 241051Z 21005KT 15/14 A3003 RMK A01 T01470136  RH  093%=      5-min Rain = 0
KCR2 241052Z 22005KT 15/14 A3003 RMK A01 T01470136  RH  093%=      5-min Rain = 0
KCR2 241053Z 23006KT 15/14 A3003 RMK A01 T01470137  RH  094%=      5-min Rain = 0
KCR2 241054Z 24005KT 15/14 A3003 RMK A01 T01470137  RH  094%=      5-min Rain = 0
KCR2 241055Z 23005KT 15/14 A3003 RMK A01 T01480137  RH  093%=      5-min Rain = 0
KCR2 241056Z 23005KT 15/14 A3003 RMK A01 T01470136  RH  093%=      5-min Rain = 0
KCR2 241057Z 19004KT 15/14 A3003 RMK A01 T01470137  RH  093%=      5-min Rain = 0
KCR2 241058Z 20003KT 15/14 A3003 RMK A01 T01470136  RH  093%=      5-min Rain = 0
KCR2 241059Z 20003KT 15/14 A3003 RMK A01 T01470136  RH  093%=      5-min Rain = 0
KCR2 241100Z 20004KT 15/14 A3003 RMK A01 T01470136  RH  093%=      5-min Rain = 0
KCR2 241101Z 22005KT 15/14 A3003 RMK A01 T01460136  RH  094%=      5-min Rain = 0
KCR2 241102Z 21004KT 15/14 A3003 RMK A01 T01470138  RH  094%=      5-min Rain = 0
KCR2 241103Z 19003KT 15/14 A3003 RMK A01 T01470137  RH  094%=      5-min Rain = 0
KCR2 241104Z 19003KT 15/14 A3003 RMK A01 T01470137  RH  093%=      5-min Rain = 0
KCR2 241105Z 20002KT 15/14 A3003 RMK A01 T01470137  RH  093%=      5-min Rain = 0
KCR2 241106Z 22003KT 15/14 A3003 RMK A01 T01470136  RH  093%=      5-min Rain = 0
KCR2 241107Z 20003KT 15/14 A3003 RMK A01 T01460136  RH  093%=      5-min Rain = 0
KCR2 241108Z 21003KT 15/14 A3003 RMK A01 T01460136  RH  094%=      5-min Rain = 0
KCR2 241109Z 20005KT 15/14 A3003 RMK A01 T01460136  RH  093%=      5-min Rain = 0
KCR2 241110Z 19004KT 15/14 A3003 RMK A01 T01460136  RH  094%=      5-min Rain = 0
KCR2 241111Z 20002KT 15/14 A3003 RMK A01 T01460136  RH  094%=      5-min Rain = 0
KCR2 241112Z 19001KT 15/14 A3003 RMK A01 T01460136  RH  094%=      5-min Rain = 0
KCR2 241113Z 19001KT 15/13 A3003 RMK A01 T01450134  RH  093%=      5-min Rain = 0
KCR2 241114Z 18002KT 14/13 A3003 RMK A01 T01440134  RH  094%=      5-min Rain = 0
KCR2 241115Z 19004KT 14/13 A3003 RMK A01 T01440134  RH  094%=      5-min Rain = 0
KCR2 241116Z 19004KT 15/14 A3003 RMK A01 T01450136  RH  094%=      5-min Rain = 0
KCR2 241117Z 18003KT 15/14 A3003 RMK A01 T01450136  RH  094%=      5-min Rain = 0
KCR2 241118Z 20002KT 15/14 A3003 RMK A01 T01450135  RH  094%=      5-min Rain = 0
KCR2 241119Z 18003KT 15/14 A3003 RMK A01 T01450135  RH  094%=      5-min Rain = 0
KCR2 241120Z 19004KT 14/14 A3003 RMK A01 T01440135  RH  094%=      5-min Rain = 0
KCR2 241121Z 18005KT 14/13 A3003 RMK A01 T01440134  RH  094%=      5-min Rain = 0
KCR2 241122Z 18006KT 14/13 A3003 RMK A01 T01440134  RH  094%=      5-min Rain = 0
KCR2 241123Z 19005KT 14/14 A3003 RMK A01 T01440135  RH  094%=      5-min Rain = 0
KCR2 241124Z 19004KT 14/13 A3003 RMK A01 T01440134  RH  094%=      5-min Rain = 0
KCR2 241125Z 19004KT 14/13 A3003 RMK A01 T01430134  RH  094%=      5-min Rain = 0
KCR2 241126Z 18006KT 14/13 A3003 RMK A01 T01430133  RH  094%=      5-min Rain = 0
KCR2 241127Z 19006KT 14/13 A3003 RMK A01 T01420133  RH  094%=      5-min Rain = 0
KCR2 241128Z 19007KT 14/13 A3003 RMK A01 T01420133  RH  094%=      5-min Rain = 0
KCR2 241129Z 19007KT 14/14 A3003 RMK A01 T01430135  RH  095%=      5-min Rain = 0
KCR2 241130Z 19006KT 14/14 A3003 RMK A01 T01430135  RH  095%=      5-min Rain = 0
KCR2 241131Z 19005KT 14/14 A3003 RMK A01 T01440135  RH  094%=      5-min Rain = 0
KCR2 241132Z 19005KT 14/13 A3003 RMK A01 T01430133  RH  094%=      5-min Rain = 0
KCR2 241133Z 19005KT 14/13 A3003 RMK A01 T01420132  RH  094%=      5-min Rain = 0
KCR2 241134Z 19006KT 14/13 A3003 RMK A01 T01420132  RH  094%=      5-min Rain = 0
KCR2 241135Z 18006KT 14/13 A3003 RMK A01 T01410133  RH  095%=      5-min Rain = 0
KCR2 241136Z 18006KT 14/13 A3003 RMK A01 T01420133  RH  095%=      5-min Rain = 0
KCR2 241137Z 18006KT 14/13 A3003 RMK A01 T01420133  RH  094%=      5-min Rain = 0
KCR2 241138Z 18007KT 14/13 A3003 RMK A01 T01410132  RH  094%=      5-min Rain = 0
KCR2 241139Z 18006KT 14/13 A3003 RMK A01 T01420133  RH  095%=      5-min Rain = 0
KCR2 241140Z 19006KT 14/13 A3003 RMK A01 T01420133  RH  095%=      5-min Rain = 0
KCR2 241141Z 18005KT 14/13 A3003 RMK A01 T01420133  RH  094%=      5-min Rain = 0
KCR2 241142Z 18005KT 14/13 A3003 RMK A01 T01420134  RH  095%=      5-min Rain = 0
KCR2 241143Z 18004KT 14/13 A3003 RMK A01 T01420133  RH  095%=      5-min Rain = 0
KCR2 241144Z 17004KT 14/13 A3003 RMK A01 T01410132  RH  094%=      5-min Rain = 0
KCR2 241145Z 17004KT 14/13 A3003 RMK A01 T01410132  RH  094%=      5-min Rain = 0
KCR2 241146Z 16004KT 14/13 A3003 RMK A01 T01410132  RH  094%=      5-min Rain = 0
KCR2 241147Z 16004KT 14/13 A3003 RMK A01 T01400131  RH  094%=      5-min Rain = 0
KCR2 241148Z 15004KT 14/13 A3003 RMK A01 T01390130  RH  094%=      5-min Rain = 0
KCR2 241149Z 15004KT 14/13 A3003 RMK A01 T01380130  RH  094%=      5-min Rain = 0
KCR2 241150Z 13003KT 14/13 A3003 RMK A01 T01380129  RH  095%=      5-min Rain = 0
KCR2 241151Z 12003KT 14/13 A3003 RMK A01 T01370129  RH  095%=      5-min Rain = 0
KCR2 241152Z 12003KT 14/13 A3003 RMK A01 T01370129  RH  095%=      5-min Rain = 0
KCR2 241153Z 13002KT 14/13 A3003 RMK A01 T01370129  RH  095%=      5-min Rain = 0
KCR2 241154Z 12003KT 14/13 A3003 RMK A01 T01370129  RH  095%=      5-min Rain = 0
KCR2 241155Z 13003KT 14/13 A3003 RMK A01 T01360128  RH  095%=      5-min Rain = 0
KCR2 241156Z 15003KT 14/13 A3003 RMK A01 T01360129  RH  096%=      5-min Rain = 0
KCR2 241157Z 16003KT 14/13 A3003 RMK A01 T01370131  RH  096%=      5-min Rain = 0
KCR2 241158Z 16003KT 14/13 A3003 RMK A01 T01380131  RH  096%=      5-min Rain = 0
KCR2 241159Z 16003KT 14/13 A3003 RMK A01 T01370130  RH  095%=      5-min Rain = 0
KCR2 241200Z 16003KT 14/13 A3003 RMK A01 T01380131  RH  096%=      5-min Rain = 0
KCR2 241201Z 17003KT 14/13 A3003 RMK A01 T01380131  RH  096%=      5-min Rain = 0
KCR2 241202Z 16003KT 14/13 A3003 RMK A01 T01380131  RH  095%=      5-min Rain = 0
KCR2 241203Z 16003KT 14/13 A3003 RMK A01 T01360128  RH  095%=      5-min Rain = 0
KCR2 241204Z 15003KT 14/13 A3003 RMK A01 T01360129  RH  095%=      5-min Rain = 0
KCR2 241205Z 11003KT 13/13 A3004 RMK A01 T01340126  RH  094%=      5-min Rain = 0
KCR2 241206Z 10003KT 13/13 A3004 RMK A01 T01330125  RH  095%=      5-min Rain = 0
KCR2 241207Z 10003KT 13/13 A3004 RMK A01 T01330126  RH  095%=      5-min Rain = 0
KCR2 241208Z 10003KT 13/13 A3004 RMK A01 T01340128  RH  096%=      5-min Rain = 0
KCR2 241209Z 10003KT 13/13 A3004 RMK A01 T01330126  RH  095%=      5-min Rain = 0
KCR2 241210Z 10002KT 13/12 A3004 RMK A01 T01320124  RH  095%=      5-min Rain = 0
KCR2 241211Z 11002KT 13/12 A3004 RMK A01 T01300123  RH  095%=      5-min Rain = 0
KCR2 241212Z 12002KT 13/12 A3004 RMK A01 T01300122  RH  095%=      5-min Rain = 0
KCR2 241213Z 13002KT 13/12 A3004 RMK A01 T01290122  RH  095%=      5-min Rain = 0
KCR2 241214Z 14002KT 13/12 A3004 RMK A01 T01290122  RH  095%=      5-min Rain = 0
KCR2 241215Z 15001KT 13/12 A3004 RMK A01 T01290122  RH  096%=      5-min Rain = 0
KCR2 241216Z 15002KT 13/12 A3004 RMK A01 T01290122  RH  096%=      5-min Rain = 0
KCR2 241217Z 15002KT 13/12 A3004 RMK A01 T01290124  RH  096%=      5-min Rain = 0
KCR2 241218Z 14002KT 13/12 A3004 RMK A01 T01290123  RH  096%=      5-min Rain = 0
KCR2 241219Z 15002KT 13/12 A3004 RMK A01 T01280121  RH  096%=      5-min Rain = 0
KCR2 241220Z 14002KT 13/12 A3004 RMK A01 T01280122  RH  096%=      5-min Rain = 0
KCR2 241221Z 14002KT 13/12 A3004 RMK A01 T01280122  RH  096%=      5-min Rain = 0
KCR2 241222Z 13001KT 13/12 A3004 RMK A01 T01280123  RH  096%=      5-min Rain = 0
KCR2 241223Z 11001KT 13/12 A3004 RMK A01 T01280123  RH  097%=      5-min Rain = 0
KCR2 241224Z 10002KT 13/12 A3004 RMK A01 T01280123  RH  097%=      5-min Rain = 0
KCR2 241225Z 08002KT 13/12 A3004 RMK A01 T01280122  RH  097%=      5-min Rain = 0
KCR2 241226Z 09002KT 13/12 A3004 RMK A01 T01260121  RH  096%=      5-min Rain = 0
KCR2 241227Z 10002KT 13/12 A3004 RMK A01 T01250120  RH  096%=      5-min Rain = 0
KCR2 241228Z 11002KT 12/12 A3004 RMK A01 T01240119  RH  097%=      5-min Rain = 0
KCR2 241229Z 13001KT 12/12 A3004 RMK A01 T01240119  RH  097%=      5-min Rain = 0
KCR2 241230Z 13002KT 12/12 A3004 RMK A01 T01240119  RH  097%=      5-min Rain = 0
KCR2 241231Z 14002KT 12/12 A3004 RMK A01 T01240119  RH  097%=      5-min Rain = 0
KCR2 241232Z 15002KT 12/12 A3004 RMK A01 T01240120  RH  097%=      5-min Rain = 0
KCR2 241233Z 15002KT 12/12 A3004 RMK A01 T01240120  RH  097%=      5-min Rain = 0
KCR2 241234Z 15002KT 13/12 A3004 RMK A01 T01250121  RH  097%=      5-min Rain = 0
KCR2 241235Z 16001KT 13/12 A3004 RMK A01 T01260122  RH  097%=      5-min Rain = 0
KCR2 241236Z 17002KT 13/12 A3004 RMK A01 T01260123  RH  098%=      5-min Rain = 0
KCR2 241237Z 15001KT 13/12 A3004 RMK A01 T01270123  RH  098%=      5-min Rain = 0
KCR2 241238Z 14002KT 13/12 A3004 RMK A01 T01250120  RH  097%=      5-min Rain = 0
KCR2 241239Z 13002KT 12/12 A3005 RMK A01 T01220117  RH  097%=      5-min Rain = 0
KCR2 241240Z 13001KT 12/11 A3005 RMK A01 T01190114  RH  096%=      5-min Rain = 0
KCR2 241241Z 12002KT 12/11 A3005 RMK A01 T01180113  RH  096%=      5-min Rain = 0
KCR2 241242Z 13002KT 12/11 A3005 RMK A01 T01180113  RH  097%=      5-min Rain = 0
KCR2 241243Z 12002KT 12/11 A3005 RMK A01 T01180113  RH  097%=      5-min Rain = 0
KCR2 241244Z 09002KT 12/12 A3005 RMK A01 T01190115  RH  097%=      5-min Rain = 0
KCR2 241245Z 08002KT 12/11 A3005 RMK A01 T01170112  RH  097%=      5-min Rain = 0
KCR2 241246Z 12001KT 11/11 A3005 RMK A01 T01140109  RH  097%=      5-min Rain = 0
KCR2 241247Z 13002KT 12/11 A3005 RMK A01 T01150111  RH  097%=      5-min Rain = 0
KCR2 241248Z 12001KT 12/11 A3005 RMK A01 T01170113  RH  097%=      5-min Rain = 0
KCR2 241249Z 14001KT 12/11 A3005 RMK A01 T01150110  RH  097%=      5-min Rain = 0
KCR2 241250Z 16002KT 11/11 A3005 RMK A01 T01140110  RH  097%=      5-min Rain = 0
KCR2 241251Z 15002KT 11/11 A3005 RMK A01 T01140110  RH  097%=      5-min Rain = 0
KCR2 241252Z 15002KT 12/11 A3005 RMK A01 T01150111  RH  098%=      5-min Rain = 0
KCR2 241253Z 15001KT 11/11 A3005 RMK A01 T01140110  RH  097%=      5-min Rain = 0
KCR2 241254Z 17001KT 11/11 A3005 RMK A01 T01130109  RH  097%=      5-min Rain = 0
KCR2 241255Z 17002KT 11/11 A3005 RMK A01 T01120108  RH  097%=      5-min Rain = 0
KCR2 241256Z 18002KT 11/11 A3005 RMK A01 T01110106  RH  097%=      5-min Rain = 0
KCR2 241257Z 18002KT 11/11 A3005 RMK A01 T01110107  RH  097%=      5-min Rain = 0
KCR2 241258Z 18002KT 11/11 A3005 RMK A01 T01120108  RH  098%=      5-min Rain = 0
KCR2 241259Z 17001KT 12/11 A3005 RMK A01 T01150112  RH  098%=      5-min Rain = 0
KCR2 241300Z 16001KT 12/11 A3005 RMK A01 T01160113  RH  098%=      5-min Rain = 0
KCR2 241301Z 08000KT 11/11 A3005 RMK A01 T01130108  RH  097%=      5-min Rain = 0
KCR2 241302Z 10001KT 11/11 A3005 RMK A01 T01100106  RH  097%=      5-min Rain = 0
KCR2 241303Z 09001KT 11/11 A3005 RMK A01 T01090105  RH  097%=      5-min Rain = 0
KCR2 241304Z 12001KT 11/10 A3005 RMK A01 T01070103  RH  097%=      5-min Rain = 0
KCR2 241305Z 13001KT 11/10 A3005 RMK A01 T01070103  RH  097%=      5-min Rain = 0
KCR2 241306Z 13001KT 11/10 A3005 RMK A01 T01070103  RH  097%=      5-min Rain = 0
KCR2 241307Z 15001KT 11/10 A3005 RMK A01 T01070103  RH  097%=      5-min Rain = 0
KCR2 241308Z 16001KT 11/10 A3006 RMK A01 T01070103  RH  097%=      5-min Rain = 0
KCR2 241309Z 17001KT 11/10 A3006 RMK A01 T01070103  RH  097%=      5-min Rain = 0
KCR2 241310Z 18001KT 11/10 A3006 RMK A01 T01070103  RH  097%=      5-min Rain = 0
KCR2 241311Z 18001KT 11/10 A3006 RMK A01 T01070103  RH  097%=      5-min Rain = 0
KCR2 241312Z 17001KT 11/10 A3006 RMK A01 T01080104  RH  098%=      5-min Rain = 0
KCR2 241313Z 18001KT 11/10 A3006 RMK A01 T01080104  RH  097%=      5-min Rain = 0
KCR2 241314Z 16001KT 11/10 A3006 RMK A01 T01080104  RH  097%=      5-min Rain = 0
KCR2 241315Z 16001KT 11/10 A3006 RMK A01 T01080104  RH  097%=      5-min Rain = 0
KCR2 241316Z 17001KT 11/10 A3006 RMK A01 T01080104  RH  097%=      5-min Rain = 0
KCR2 241317Z 18002KT 11/11 A3006 RMK A01 T01090105  RH  097%=      5-min Rain = 0
KCR2 241318Z 16001KT 11/11 A3006 RMK A01 T01120109  RH  098%=      5-min Rain = 0
KCR2 241319Z 17002KT 11/11 A3006 RMK A01 T01120108  RH  098%=      5-min Rain = 0
KCR2 241320Z 18002KT 11/11 A3006 RMK A01 T01120108  RH  098%=      5-min Rain = 0
KCR2 241321Z 20002KT 11/11 A3006 RMK A01 T01130109  RH  098%=      5-min Rain = 0
KCR2 241322Z 20003KT 12/11 A3006 RMK A01 T01150112  RH  098%=      5-min Rain = 0
KCR2 241323Z 22003KT 12/11 A3006 RMK A01 T01150111  RH  098%=      5-min Rain = 0
KCR2 241324Z 22003KT 11/11 A3006 RMK A01 T01140110  RH  097%=      5-min Rain = 0
KCR2 241325Z 21004KT 12/11 A3006 RMK A01 T01170114  RH  098%=      5-min Rain = 0
KCR2 241326Z 20006KT 12/12 A3006 RMK A01 T01220120  RH  099%=      5-min Rain = 0
KCR2 241327Z 21007KT 13/13 A3006 RMK A01 T01300129  RH  099%=      5-min Rain = 0
KCR2 241328Z 20007KT 14/13 A3006 RMK A01 T01350133  RH  099%=      5-min Rain = 0
KCR2 241329Z 21007KT 14/13 A3006 RMK A01 T01360134  RH  099%=      5-min Rain = 0
KCR2 241330Z 21006KT 14/14 A3006 RMK A01 T01370135  RH  099%=      5-min Rain = 0
KCR2 241331Z 21006KT 14/14 A3006 RMK A01 T01370135  RH  098%=      5-min Rain = 0
KCR2 241332Z 21008KT 14/13 A3006 RMK A01 T01370134  RH  098%=      5-min Rain = 0
KCR2 241333Z 21007KT 14/14 A3006 RMK A01 T01380135  RH  098%=      5-min Rain = 0
KCR2 241334Z 21007KT 14/14 A3006 RMK A01 T01390136  RH  098%=      5-min Rain = 0
KCR2 241335Z 20008KT 14/14 A3006 RMK A01 T01390136  RH  098%=      5-min Rain = 0
KCR2 241336Z 20007KT 14/14 A3006 RMK A01 T01410137  RH  097%=      5-min Rain = 0
KCR2 241337Z 21007KT 14/14 A3006 RMK A01 T01410136  RH  097%=      5-min Rain = 0
KCR2 241338Z 20008KT 14/14 A3006 RMK A01 T01410136  RH  097%=      5-min Rain = 0
KCR2 241339Z 20008KT 14/14 A3006 RMK A01 T01420136  RH  096%=      5-min Rain = 0
KCR2 241340Z 21007KT 14/14 A3006 RMK A01 T01430136  RH  096%=      5-min Rain = 0
KCR2 241341Z 21007KT 14/14 A3006 RMK A01 T01430136  RH  095%=      5-min Rain = 0
KCR2 241342Z 21008KT 14/14 A3006 RMK A01 T01440136  RH  095%=      5-min Rain = 0
KCR2 241343Z 20007KT 14/14 A3006 RMK A01 T01440135  RH  095%=      5-min Rain = 0
KCR2 241344Z 20008KT 14/14 A3006 RMK A01 T01440135  RH  094%=      5-min Rain = 0
KCR2 241345Z 21007KT 14/13 A3006 RMK A01 T01440134  RH  094%=      5-min Rain = 0
KCR2 241346Z 20007KT 14/13 A3006 RMK A01 T01440134  RH  094%=      5-min Rain = 0
KCR2 241347Z 20007KT 14/13 A3006 RMK A01 T01440134  RH  094%=      5-min Rain = 0
KCR2 241348Z 20008KT 15/14 A3006 RMK A01 T01450135  RH  094%=      5-min Rain = 0
KCR2 241349Z 20007KT 15/14 A3007 RMK A01 T01450135  RH  093%=      5-min Rain = 0
KCR2 241350Z 20007KT 15/14 A3007 RMK A01 T01460135  RH  093%=      5-min Rain = 0
KCR2 241351Z 21007KT 15/14 A3007 RMK A01 T01460135  RH  093%=      5-min Rain = 0
KCR2 241352Z 20008KT 15/14 A3007 RMK A01 T01470135  RH  093%=      5-min Rain = 0
KCR2 241353Z 21008KT 15/14 A3007 RMK A01 T01470136  RH  093%=      5-min Rain = 0
KCR2 241354Z 20008KT 15/14 A3007 RMK A01 T01480136  RH  093%=      5-min Rain = 0
KCR2 241355Z 21008KT 15/14 A3007 RMK A01 T01480136  RH  092%=      5-min Rain = 0
KCR2 241356Z 20007KT 15/14 A3007 RMK A01 T01490136  RH  092%=      5-min Rain = 0
KCR2 241357Z 20008KT 15/14 A3007 RMK A01 T01490136  RH  092%=      5-min Rain = 0
KCR2 241358Z 20007KT 15/14 A3007 RMK A01 T01490137  RH  092%=      5-min Rain = 0
KCR2 241359Z 21007KT 15/14 A3007 RMK A01 T01500136  RH  092%=      5-min Rain = 0
KCR2 241400Z 20008KT 15/14 A3007 RMK A01 T01500137  RH  091%=      5-min Rain = 0
KCR2 241401Z 20007KT 15/14 A3007 RMK A01 T01510137  RH  091%=      5-min Rain = 0
KCR2 241402Z 21009KT 15/14 A3007 RMK A01 T01510137  RH  091%=      5-min Rain = 0
KCR2 241403Z 20008KT 15/14 A3007 RMK A01 T01510137  RH  091%=      5-min Rain = 0
KCR2 241404Z 20009KT 15/14 A3007 RMK A01 T01520137  RH  091%=      5-min Rain = 0
KCR2 241405Z 20009KT 15/14 A3007 RMK A01 T01520137  RH  090%=      5-min Rain = 0
KCR2 241406Z 21008KT 15/14 A3007 RMK A01 T01520137  RH  090%=      5-min Rain = 0
KCR2 241407Z 21009KT 15/14 A3007 RMK A01 T01530137  RH  090%=      5-min Rain = 0
KCR2 241408Z 20009KT 15/14 A3007 RMK A01 T01530137  RH  090%=      5-min Rain = 0
KCR2 241409Z 21010KT 15/14 A3007 RMK A01 T01530136  RH  090%=      5-min Rain = 0
KCR2 241410Z 21008KT 15/14 A3007 RMK A01 T01530136  RH  089%=      5-min Rain = 0
KCR2 241411Z 21009KT 15/14 A3007 RMK A01 T01540137  RH  090%=      5-min Rain = 0
KCR2 241412Z 22010KT 15/14 A3008 RMK A01 T01540137  RH  089%=      5-min Rain = 0
KCR2 241413Z 22009KT 15/14 A3008 RMK A01 T01540136  RH  089%=      5-min Rain = 0
KCR2 241414Z 21008KT 15/14 A3008 RMK A01 T01540136  RH  089%=      5-min Rain = 0
KCR2 241415Z 21009KT 16/14 A3008 RMK A01 T01550137  RH  089%=      5-min Rain = 0
KCR2 241416Z 21009KT 16/14 A3008 RMK A01 T01550136  RH  089%=      5-min Rain = 0
KCR2 241417Z 21008KT 16/14 A3008 RMK A01 T01550135  RH  088%=      5-min Rain = 0
KCR2 241418Z 20009KT 16/14 A3008 RMK A01 T01550136  RH  089%=      5-min Rain = 0
KCR2 241419Z 21008KT 16/14 A3008 RMK A01 T01550137  RH  089%=      5-min Rain = 0
KCR2 241420Z 21009KT 16/14 A3008 RMK A01 T01560137  RH  089%=      5-min Rain = 0
KCR2 241421Z 21009KT 16/14 A3008 RMK A01 T01560137  RH  088%=      5-min Rain = 0
KCR2 241422Z 21010KT 16/14 A3008 RMK A01 T01570137  RH  088%=      5-min Rain = 0
KCR2 241423Z 21009KT 16/14 A3008 RMK A01 T01570136  RH  087%=      5-min Rain = 0
KCR2 241424Z 21010KT 16/14 A3008 RMK A01 T01580137  RH  087%=      5-min Rain = 0
KCR2 241425Z 21008KT 16/14 A3008 RMK A01 T01580136  RH  087%=      5-min Rain = 0
KCR2 241426Z 21009KT 16/14 A3008 RMK A01 T01590137  RH  087%=      5-min Rain = 0
KCR2 241427Z 20011KT 16/14 A3009 RMK A01 T01590136  RH  086%=      5-min Rain = 0
KCR2 241428Z 21011KT 16/14 A3009 RMK A01 T01590136  RH  086%=      5-min Rain = 0
KCR2 241429Z 21010KT 16/14 A3009 RMK A01 T01590135  RH  085%=      5-min Rain = 0
KCR2 241430Z 21010KT 16/14 A3009 RMK A01 T01600135  RH  085%=      5-min Rain = 0
KCR2 241431Z 21010KT 16/14 A3009 RMK A01 T01600136  RH  085%=      5-min Rain = 0
KCR2 241432Z 20010KT 16/14 A3009 RMK A01 T01610136  RH  085%=      5-min Rain = 0
KCR2 241433Z 21009KT 16/14 A3009 RMK A01 T01610136  RH  085%=      5-min Rain = 0
KCR2 241434Z 21009KT 16/14 A3009 RMK A01 T01620138  RH  085%=      5-min Rain = 0
KCR2 241435Z 21008KT 16/14 A3009 RMK A01 T01630137  RH  085%=      5-min Rain = 0
KCR2 241436Z 21009KT 16/14 A3009 RMK A01 T01640137  RH  084%=      5-min Rain = 0
KCR2 241437Z 21011KT 16/14 A3009 RMK A01 T01640136  RH  084%=      5-min Rain = 0
KCR2 241438Z 21011KT 16/14 A3009 RMK A01 T01640135  RH  083%=      5-min Rain = 0
KCR2 241439Z 21012KT 16/14 A3009 RMK A01 T01640136  RH  084%=      5-min Rain = 0
KCR2 241440Z 21012KT 16/13 A3009 RMK A01 T01640134  RH  082%=      5-min Rain = 0
KCR2 241441Z 21011KT 16/13 A3009 RMK A01 T01640134  RH  082%=      5-min Rain = 0
KCR2 241442Z 21011KT 16/13 A3009 RMK A01 T01640134  RH  082%=      5-min Rain = 0
KCR2 241443Z 21010KT 17/14 A3009 RMK A01 T01650136  RH  083%=      5-min Rain = 0
KCR2 241444Z 22011KT 17/14 A3009 RMK A01 T01660137  RH  083%=      5-min Rain = 0
KCR2 241445Z 20011KT 17/14 A3009 RMK A01 T01670136  RH  082%=      5-min Rain = 0
KCR2 241446Z 20010KT 17/14 A3009 RMK A01 T01680136  RH  081%=      5-min Rain = 0
KCR2 241447Z 20010KT 17/14 A3009 RMK A01 T01670135  RH  081%=      5-min Rain = 0
KCR2 241448Z 20009KT 17/14 A3009 RMK A01 T01680136  RH  082%=      5-min Rain = 0
KCR2 241449Z 21011KT 17/14 A3009 RMK A01 T01680135  RH  081%=      5-min Rain = 0
KCR2 241450Z 21011KT 17/13 A3009 RMK A01 T01680134  RH  080%=      5-min Rain = 0
KCR2 241451Z 20011KT 17/13 A3009 RMK A01 T01680134  RH  080%=      5-min Rain = 0
KCR2 241452Z 20011KT 17/13 A3009 RMK A01 T01680133  RH  080%=      5-min Rain = 0
KCR2 241453Z 21012KT 17/13 A3009 RMK A01 T01670133  RH  080%=      5-min Rain = 0
KCR2 241454Z 20011KT 17/14 A3009 RMK A01 T01680136  RH  081%=      5-min Rain = 0
KCR2 241455Z 20010KT 17/13 A3009 RMK A01 T01690134  RH  080%=      5-min Rain = 0
KCR2 241456Z 21009KT 17/14 A301 RMK A01 T01690136  RH  081%=      5-min Rain = 0
KCR2 241457Z 22009KT 17/14 A301 RMK A01 T01710137  RH  080%=      5-min Rain = 0
KCR2 241458Z 23009KT 17/14 A301 RMK A01 T01730137  RH  079%=      5-min Rain = 0
KCR2 241459Z 22009KT 17/14 A301 RMK A01 T01730137  RH  079%=      5-min Rain = 0
KCR2 241500Z 23011KT 17/14 A301 RMK A01 T01730136  RH  079%=      5-min Rain = 0
KCR2 241501Z 23011KT 17/13 A301 RMK A01 T01720134  RH  078%=      5-min Rain = 0
KCR2 241502Z 22011KT 17/13 A301 RMK A01 T01720134  RH  078%=      5-min Rain = 0
KCR2 241503Z 22011KT 17/13 A301 RMK A01 T01720134  RH  079%=      5-min Rain = 0
KCR2 241504Z 22010KT 17/13 A301 RMK A01 T01720133  RH  078%=      5-min Rain = 0
KCR2 241505Z 22010KT 17/13 A301 RMK A01 T01720134  RH  079%=      5-min Rain = 0
KCR2 241506Z 22009KT 17/13 A301 RMK A01 T01720134  RH  079%=      5-min Rain = 0
KCR2 241507Z 22008KT 17/14 A301 RMK A01 T01720135  RH  078%=      5-min Rain = 0
KCR2 241508Z 21009KT 17/14 A301 RMK A01 T01740135  RH  078%=      5-min Rain = 0
KCR2 241509Z 21008KT 17/14 A301 RMK A01 T01740135  RH  078%=      5-min Rain = 0
KCR2 241510Z 23010KT 18/14 A301 RMK A01 T01750135  RH  078%=      5-min Rain = 0
KCR2 241511Z 23009KT 18/13 A301 RMK A01 T01750133  RH  077%=      5-min Rain = 0
KCR2 241512Z 23009KT 17/13 A301 RMK A01 T01740134  RH  077%=      5-min Rain = 0
KCR2 241513Z 23010KT 18/13 A301 RMK A01 T01760134  RH  076%=      5-min Rain = 0
KCR2 241514Z 22009KT 18/13 A301 RMK A01 T01760132  RH  075%=      5-min Rain = 0
KCR2 241515Z 22008KT 18/13 A301 RMK A01 T01750132  RH  076%=      5-min Rain = 0
KCR2 241516Z 22007KT 18/13 A301 RMK A01 T01760132  RH  076%=      5-min Rain = 0
KCR2 241517Z 21007KT 18/14 A301 RMK A01 T01770135  RH  076%=      5-min Rain = 0
KCR2 241518Z 21007KT 18/14 A301 RMK A01 T01800137  RH  076%=      5-min Rain = 0
KCR2 241519Z 23009KT 18/13 A301 RMK A01 T01810134  RH  074%=      5-min Rain = 0
KCR2 241520Z 23010KT 18/13 A301 RMK A01 T01820132  RH  073%=      5-min Rain = 0
KCR2 241521Z 23008KT 18/13 A301 RMK A01 T01810131  RH  072%=      5-min Rain = 0
KCR2 241522Z 22009KT 18/13 A301 RMK A01 T01810133  RH  073%=      5-min Rain = 0
KCR2 241523Z 22008KT 18/13 A301 RMK A01 T01820131  RH  072%=      5-min Rain = 0
KCR2 241524Z 23009KT 18/13 A301 RMK A01 T01830132  RH  072%=      5-min Rain = 0
KCR2 241525Z 22010KT 18/13 A301 RMK A01 T01830131  RH  072%=      5-min Rain = 0
KCR2 241526Z 22010KT 18/13 A3011 RMK A01 T01830130  RH  071%=      5-min Rain = 0
KCR2 241527Z 21010KT 18/13 A3011 RMK A01 T01830132  RH  072%=      5-min Rain = 0
KCR2 241528Z 21010KT 18/13 A3011 RMK A01 T01840131  RH  071%=      5-min Rain = 0
KCR2 241529Z 21008KT 18/13 A3011 RMK A01 T01840131  RH  071%=      5-min Rain = 0
KCR2 241530Z 23009KT 18/13 A3011 RMK A01 T01840131  RH  071%=      5-min Rain = 0
KCR2 241531Z 23010KT 19/13 A3011 RMK A01 T01850129  RH  070%=      5-min Rain = 0
KCR2 241532Z 23009KT 19/13 A3011 RMK A01 T01850126  RH  069%=      5-min Rain = 0
KCR2 241533Z 23009KT 19/13 A3011 RMK A01 T01850129  RH  070%=      5-min Rain = 0
KCR2 241534Z 23009KT 19/13 A3011 RMK A01 T01850129  RH  070%=      5-min Rain = 0
KCR2 241535Z 23009KT 19/13 A3011 RMK A01 T01850128  RH  069%=      5-min Rain = 0
KCR2 241536Z 22008KT 19/13 A3011 RMK A01 T01850127  RH  069%=      5-min Rain = 0
KCR2 241537Z 22009KT 19/13 A3011 RMK A01 T01860128  RH  069%=      5-min Rain = 0
KCR2 241538Z 22010KT 19/13 A3011 RMK A01 T01870127  RH  068%=      5-min Rain = 0
KCR2 241539Z 22010KT 19/13 A3011 RMK A01 T01870125  RH  067%=      5-min Rain = 0
KCR2 241540Z 22008KT 19/13 A3011 RMK A01 T01860125  RH  068%=      5-min Rain = 0
KCR2 241541Z 21009KT 19/13 A3011 RMK A01 T01870128  RH  068%=      5-min Rain = 0
KCR2 241542Z 21009KT 19/13 A3011 RMK A01 T01890129  RH  068%=      5-min Rain = 0
KCR2 241543Z 21009KT 19/13 A3011 RMK A01 T01900128  RH  067%=      5-min Rain = 0
KCR2 241544Z 23009KT 19/13 A3011 RMK A01 T01910127  RH  067%=      5-min Rain = 0
KCR2 241545Z 22009KT 19/13 A3011 RMK A01 T01910127  RH  066%=      5-min Rain = 0
KCR2 241546Z 22008KT 19/13 A3011 RMK A01 T01910128  RH  067%=      5-min Rain = 0
KCR2 241547Z 21009KT 19/13 A3011 RMK A01 T01930126  RH  065%=      5-min Rain = 0
KCR2 241548Z 23009KT 19/13 A3011 RMK A01 T01930127  RH  066%=      5-min Rain = 0
KCR2 241549Z 23010KT 19/12 A3011 RMK A01 T01920123  RH  064%=      5-min Rain = 0
KCR2 241550Z 23009KT 19/12 A3011 RMK A01 T01910121  RH  063%=      5-min Rain = 0
KCR2 241551Z 22008KT 19/12 A3011 RMK A01 T01910121  RH  064%=      5-min Rain = 0
KCR2 241552Z 21010KT 19/12 A3011 RMK A01 T01930122  RH  064%=      5-min Rain = 0
KCR2 241553Z 23009KT 20/12 A3011 RMK A01 T01950123  RH  063%=      5-min Rain = 0
KCR2 241554Z 24008KT 20/12 A3011 RMK A01 T01960124  RH  063%=      5-min Rain = 0
KCR2 241555Z 24008KT 20/12 A3011 RMK A01 T01960122  RH  062%=      5-min Rain = 0
KCR2 241556Z 23008KT 20/12 A3011 RMK A01 T01970118  RH  060%=      5-min Rain = 0
KCR2 241557Z 23007KT 20/12 A3011 RMK A01 T01980117  RH  059%=      5-min Rain = 0
KCR2 241558Z 23008KT 20/12 A3011 RMK A01 T02000116  RH  058%=      5-min Rain = 0
KCR2 241559Z 23009KT 20/11 A3011 RMK A01 T02000112  RH  057%=      5-min Rain = 0
KCR2 241600Z 22008KT 20/12 A3011 RMK A01 T02000115  RH  058%=      5-min Rain = 0
KCR2 241601Z 21008KT 20/11 A3011 RMK A01 T02000114  RH  058%=      5-min Rain = 0
KCR2 241602Z 22008KT 20/12 A3011 RMK A01 T02000116  RH  059%=      5-min Rain = 0
KCR2 241603Z 22009KT 20/12 A3011 RMK A01 T02010116  RH  058%=      5-min Rain = 0
KCR2 241604Z 22010KT 20/11 A3011 RMK A01 T02030105  RH  053%=      5-min Rain = 0
KCR2 241605Z 22009KT 20/11 A3011 RMK A01 T02030108  RH  054%=      5-min Rain = 0
KCR2 241606Z 23007KT 20/11 A3011 RMK A01 T02030112  RH  056%=      5-min Rain = 0
KCR2 241607Z 24008KT 20/11 A3011 RMK A01 T02030105  RH  053%=      5-min Rain = 0
KCR2 241608Z 23009KT 20/11 A3011 RMK A01 T02040106  RH  053%=      5-min Rain = 0
KCR2 241609Z 23009KT 21/11 A3011 RMK A01 T02050108  RH  054%=      5-min Rain = 0
KCR2 241610Z 24007KT 21/11 A3011 RMK A01 T02050105  RH  053%=      5-min Rain = 0
KCR2 241611Z 24008KT 21/11 A3011 RMK A01 T02050105  RH  053%=      5-min Rain = 0
KCR2 241612Z 25009KT 21/11 A3011 RMK A01 T02050105  RH  052%=      5-min Rain = 0
KCR2 241613Z 25007KT 21/11 A3011 RMK A01 T02050111  RH  055%=      5-min Rain = 0
KCR2 241614Z 23007KT 21/11 A3011 RMK A01 T02060113  RH  055%=      5-min Rain = 0
KCR2 241615Z 22008KT 21/11 A3011 RMK A01 T02080108  RH  053%=      5-min Rain = 0
KCR2 241616Z 22006KT 21/10 A3011 RMK A01 T02080103  RH  051%=      5-min Rain = 0
KCR2 241617Z 23009KT 21/10 A3011 RMK A01 T02080102  RH  051%=      5-min Rain = 0
KCR2 241618Z 22009KT 21/09 A3011 RMK A01 T02090093  RH  047%=      5-min Rain = 0
KCR2 241619Z 22008KT 21/10 A3011 RMK A01 T02090096  RH  048%=      5-min Rain = 0
KCR2 241620Z 23006KT 21/10 A3011 RMK A01 T02090102  RH  050%=      5-min Rain = 0
KCR2 241621Z 22007KT 21/11 A3011 RMK A01 T02100107  RH  052%=      5-min Rain = 0
KCR2 241622Z 22007KT 21/10 A3011 RMK A01 T02110097  RH  048%=      5-min Rain = 0
KCR2 241623Z 24007KT 21/10 A3011 RMK A01 T02110101  RH  049%=      5-min Rain = 0
KCR2 241624Z 25009KT 21/10 A3011 RMK A01 T02120098  RH  048%=      5-min Rain = 0
KCR2 241625Z 24006KT 21/10 A3011 RMK A01 T02120104  RH  050%=      5-min Rain = 0
KCR2 241626Z 23007KT 21/10 A3011 RMK A01 T02130103  RH  050%=      5-min Rain = 0
KCR2 241627Z 24009KT 22/09 A3011 RMK A01 T02150090  RH  045%=      5-min Rain = 0
KCR2 241628Z 24009KT 22/09 A3011 RMK A01 T02160085  RH  043%=      5-min Rain = 0
KCR2 241629Z 23007KT 22/09 A3011 RMK A01 T02170088  RH  044%=      5-min Rain = 0
KCR2 241630Z 22007KT 22/09 A3011 RMK A01 T02180094  RH  045%=      5-min Rain = 0
KCR2 241631Z 23008KT 22/08 A3011 RMK A01 T02190084  RH  042%=      5-min Rain = 0
KCR2 241632Z 24010KT 22/08 A3011 RMK A01 T02190077  RH  040%=      5-min Rain = 0
KCR2 241633Z 25009KT 22/08 A3011 RMK A01 T02180077  RH  040%=      5-min Rain = 0
KCR2 241634Z 24009KT 22/08 A3011 RMK A01 T02190075  RH  039%=      5-min Rain = 0
KCR2 241635Z 24009KT 22/08 A3011 RMK A01 T02190083  RH  042%=      5-min Rain = 0
KCR2 241636Z 24008KT 22/09 A3011 RMK A01 T02180088  RH  043%=      5-min Rain = 0
KCR2 241637Z 23011KT 22/07 A3011 RMK A01 T02180073  RH  039%=      5-min Rain = 0
KCR2 241638Z 23010KT 22/06 A3011 RMK A01 T02190064  RH  036%=      5-min Rain = 0
KCR2 241639Z 24011KT 22/06 A3011 RMK A01 T02200061  RH  036%=      5-min Rain = 0
KCR2 241640Z 24009KT 22/06 A3011 RMK A01 T02210063  RH  036%=      5-min Rain = 0
KCR2 241641Z 23007KT 22/07 A3011 RMK A01 T02210065  RH  036%=      5-min Rain = 0
KCR2 241642Z 23009KT 22/07 A3011 RMK A01 T02220071  RH  038%=      5-min Rain = 0
KCR2 241643Z 22010KT 22/06 A3011 RMK A01 T02240059  RH  034%=      5-min Rain = 0
KCR2 241644Z 23007KT 22/06 A3011 RMK A01 T02240057  RH  034%=      5-min Rain = 0
KCR2 241645Z 23009KT 22/06 A3011 RMK A01 T02240062  RH  035%=      5-min Rain = 0
KCR2 241646Z 25010KT 23/06 A3011 RMK A01 T02250055  RH  033%=      5-min Rain = 0
KCR2 241647Z 23009KT 23/06 A3011 RMK A01 T02250060  RH  034%=      5-min Rain = 0
KCR2 241648Z 23010KT 23/07 A3011 RMK A01 T02280069  RH  036%=      5-min Rain = 0
KCR2 241649Z 22009KT 23/06 A3011 RMK A01 T02290062  RH  034%=      5-min Rain = 0
KCR2 241650Z 23008KT 23/06 A3011 RMK A01 T02270057  RH  033%=      5-min Rain = 0
KCR2 241651Z 23010KT 23/05 A301 RMK A01 T02260049  RH  032%=      5-min Rain = 0
KCR2 241652Z 22012KT 23/05 A301 RMK A01 T02280052  RH  032%=      5-min Rain = 0
KCR2 241653Z 23011KT 23/05 A301 RMK A01 T02300050  RH  031%=      5-min Rain = 0
KCR2 241654Z 23009KT 23/05 A301 RMK A01 T02300047  RH  030%=      5-min Rain = 0
KCR2 241655Z 22010KT 23/05 A301 RMK A01 T02290051  RH  031%=      5-min Rain = 0
KCR2 241656Z 22008KT 23/06 A301 RMK A01 T02290059  RH  033%=      5-min Rain = 0
KCR2 241657Z 22006KT 23/07 A301 RMK A01 T02280068  RH  035%=      5-min Rain = 0
KCR2 241658Z 23008KT 23/07 A301 RMK A01 T02340069  RH  035%=      5-min Rain = 0
KCR2 241659Z 24008KT 24/05 A301 RMK A01 T02360052  RH  030%=      5-min Rain = 0
KCR2 241700Z 22009KT 23/06 A301 RMK A01 T02340055  RH  031%=      5-min Rain = 0
KCR2 241701Z 23007KT 23/05 A301 RMK A01 T02330050  RH  031%=      5-min Rain = 0
KCR2 241702Z 23008KT 23/06 A301 RMK A01 T02330058  RH  032%=      5-min Rain = 0
KCR2 241703Z 23008KT 24/05 A301 RMK A01 T02350054  RH  031%=      5-min Rain = 0
KCR2 241704Z 23010KT 24/06 A301 RMK A01 T02360059  RH  032%=      5-min Rain = 0
KCR2 241705Z 23010KT 24/06 A301 RMK A01 T02380060  RH  032%=      5-min Rain = 0
KCR2 241706Z 23010KT 24/06 A301 RMK A01 T02380055  RH  031%=      5-min Rain = 0
KCR2 241707Z 23008KT 24/05 A301 RMK A01 T02350053  RH  031%=      5-min Rain = 0
KCR2 241708Z 24009KT 23/05 A301 RMK A01 T02340053  RH  031%=      5-min Rain = 0
KCR2 241709Z 24009KT 24/05 A301 RMK A01 T02360050  RH  030%=      5-min Rain = 0
KCR2 241710Z 23008KT 24/05 A301 RMK A01 T02370045  RH  029%=      5-min Rain = 0
KCR2 241711Z 23010KT 24/04 A301 RMK A01 T02390044  RH  028%=      5-min Rain = 0
KCR2 241712Z 23009KT 24/04 A301 RMK A01 T02390042  RH  028%=      5-min Rain = 0
KCR2 241713Z 25008KT 24/05 A301 RMK A01 T02380046  RH  029%=      5-min Rain = 0
KCR2 241714Z 26006KT 24/05 A301 RMK A01 T02380054  RH  031%=      5-min Rain = 0
KCR2 241715Z 25007KT 24/05 A301 RMK A01 T02360054  RH  031%=      5-min Rain = 0
KCR2 241716Z 23007KT 24/05 A301 RMK A01 T02380052  RH  030%=      5-min Rain = 0
KCR2 241717Z 23007KT 24/05 A301 RMK A01 T02360047  RH  029%=      5-min Rain = 0
KCR2 241718Z 24009KT 24/03 A301 RMK A01 T02360030  RH  026%=      5-min Rain = 0
KCR2 241719Z 24010KT 24/03 A301 RMK A01 T02400031  RH  026%=      5-min Rain = 0
KCR2 241720Z 24007KT 24/03 A301 RMK A01 T02410028  RH  025%=      5-min Rain = 0
KCR2 241721Z 22008KT 24/04 A301 RMK A01 T02420043  RH  027%=      5-min Rain = 0
KCR2 241722Z 22008KT 24/04 A301 RMK A01 T02430044  RH  027%=      5-min Rain = 0
KCR2 241723Z 24006KT 24/04 A301 RMK A01 T02430044  RH  028%=      5-min Rain = 0
KCR2 241724Z 23008KT 24/05 A301 RMK A01 T02420047  RH  028%=      5-min Rain = 0
KCR2 241725Z 22010KT 24/06 A301 RMK A01 T02420058  RH  031%=      5-min Rain = 0
KCR2 241726Z 24009KT 24/06 A301 RMK A01 T02410056  RH  030%=      5-min Rain = 0
KCR2 241727Z 25008KT 24/06 A301 RMK A01 T02390055  RH  030%=      5-min Rain = 0
KCR2 241728Z 23008KT 24/06 A301 RMK A01 T02400062  RH  032%=      5-min Rain = 0
KCR2 241729Z 22007KT 24/06 A301 RMK A01 T02410063  RH  032%=      5-min Rain = 0
KCR2 241730Z 23007KT 24/06 A301 RMK A01 T02420056  RH  030%=      5-min Rain = 0
KCR2 241731Z 22008KT 24/05 A301 RMK A01 T02410054  RH  030%=      5-min Rain = 0
KCR2 241732Z 27007KT 24/06 A301 RMK A01 T02420059  RH  031%=      5-min Rain = 0
KCR2 241733Z 27009KT 25/05 A301 RMK A01 T02470053  RH  029%=      5-min Rain = 0
KCR2 241734Z 28008KT 25/05 A301 RMK A01 T02460050  RH  028%=      5-min Rain = 0
KCR2 241735Z 27007KT 24/05 A301 RMK A01 T02440054  RH  029%=      5-min Rain = 0
KCR2 241736Z 25004KT 24/06 A301 RMK A01 T02420056  RH  030%=      5-min Rain = 0
KCR2 241737Z 23006KT 24/06 A301 RMK A01 T02420057  RH  030%=      5-min Rain = 0
KCR2 241738Z 22009KT 24/05 A3009 RMK A01 T02430054  RH  030%=      5-min Rain = 0
KCR2 241739Z 23009KT 24/05 A3009 RMK A01 T02440054  RH  029%=      5-min Rain = 0
KCR2 241740Z 22009KT 24/05 A3009 RMK A01 T02440052  RH  029%=      5-min Rain = 0
KCR2 241741Z 22008KT 24/05 A3009 RMK A01 T02440048  RH  028%=      5-min Rain = 0
KCR2 241742Z 22007KT 25/05 A3009 RMK A01 T02460048  RH  028%=      5-min Rain = 0
KCR2 241743Z 21008KT 25/04 A3009 RMK A01 T02470037  RH  026%=      5-min Rain = 0
KCR2 241744Z 22006KT 25/04 A3009 RMK A01 T02470037  RH  026%=      5-min Rain = 0
KCR2 241745Z 23007KT 25/04 A3009 RMK A01 T02450044  RH  027%=      5-min Rain = 0
KCR2 241746Z 24006KT 24/05 A3009 RMK A01 T02440047  RH  028%=      5-min Rain = 0
KCR2 241747Z 23008KT 24/05 A3009 RMK A01 T02440045  RH  028%=      5-min Rain = 0
KCR2 241748Z 24009KT 24/04 A3009 RMK A01 T02440043  RH  027%=      5-min Rain = 0
KCR2 241749Z 28005KT 25/03 A3009 RMK A01 T02480028  RH  024%=      5-min Rain = 0
KCR2 241750Z 27006KT 25/01 A3009 RMK A01 T02510013  RH  021%=      5-min Rain = 0
KCR2 241751Z 28006KT 25/01 A3009 RMK A01 T02500011  RH  021%=      5-min Rain = 0
KCR2 241752Z 30005KT 25/01 A3009 RMK A01 T02480013  RH  021%=      5-min Rain = 0
KCR2 241753Z 28004KT 25/01 A3009 RMK A01 T02470013  RH  022%=      5-min Rain = 0
KCR2 241754Z 26004KT 25/01 A3009 RMK A01 T02470011  RH  021%=      5-min Rain = 0
KCR2 241755Z 24008KT 25/02 A3009 RMK A01 T02470019  RH  023%=      5-min Rain = 0
KCR2 241756Z 24005KT 25/03 A3009 RMK A01 T02490025  RH  023%=      5-min Rain = 0
KCR2 241757Z 24008KT 25/02 A3009 RMK A01 T02520024  RH  023%=      5-min Rain = 0
KCR2 241758Z 26008KT 25/02 A3009 RMK A01 T02530018  RH  022%=      5-min Rain = 0
KCR2 241759Z 27009KT 25/02 A3009 RMK A01 T02540015  RH  021%=      5-min Rain = 0
KCR2 241800Z 26007KT 25/01 A3009 RMK A01 T02520010  RH  020%=      5-min Rain = 0
KCR2 241801Z 28004KT 25/00 A3009 RMK A01 T02490003  RH  020%=      5-min Rain = 0
KCR2 241802Z 25003KT 25/01 A3009 RMK A01 T02480008  RH  021%=      5-min Rain = 0
KCR2 241803Z 24010KT 25/02 A3009 RMK A01 T02480019  RH  022%=      5-min Rain = 0
KCR2 241804Z 25009KT 25/03 A3009 RMK A01 T02500026  RH  023%=      5-min Rain = 0
KCR2 241805Z 24009KT 25/03 A3009 RMK A01 T02520028  RH  023%=      5-min Rain = 0
KCR2 241806Z 26005KT 25/02 A3009 RMK A01 T02530018  RH  022%=      5-min Rain = 0
KCR2 241807Z 27004KT 25/02 A3009 RMK A01 T02510019  RH  022%=      5-min Rain = 0
KCR2 241808Z 27004KT 25/03 A3009 RMK A01 T02530025  RH  023%=      5-min Rain = 0
KCR2 241809Z 23006KT 25/02 A3009 RMK A01 T02530021  RH  022%=      5-min Rain = 0
KCR2 241810Z 22006KT 25/02 A3008 RMK A01 T02520022  RH  022%=      5-min Rain = 0
KCR2 241811Z 26004KT 25/02 A3008 RMK A01 T02520023  RH  023%=      5-min Rain = 0
KCR2 241812Z 25005KT 25/03 A3008 RMK A01 T02530027  RH  023%=      5-min Rain = 0
KCR2 241813Z 25008KT 26/02 A3008 RMK A01 T02550017  RH  021%=      5-min Rain = 0
KCR2 241814Z 26008KT 26/01 A3008 RMK A01 T02550012  RH  020%=      5-min Rain = 0
KCR2 241815Z 25006KT 25/02 A3008 RMK A01 T02540017  RH  021%=      5-min Rain = 0
KCR2 241816Z 28005KT 25/02 A3008 RMK A01 T02530016  RH  021%=      5-min Rain = 0
KCR2 241817Z 28007KT 25/02 A3008 RMK A01 T02540015  RH  021%=      5-min Rain = 0
KCR2 241818Z 29008KT 26/01 A3008 RMK A01 T02560010  RH  020%=      5-min Rain = 0
KCR2 241819Z 30007KT 26/01 A3008 RMK A01 T02560010  RH  020%=      5-min Rain = 0
KCR2 241820Z 30007KT 26/01 A3008 RMK A01 T02580011  RH  020%=      5-min Rain = 0
KCR2 241821Z 30006KT 26/01 A3008 RMK A01 T02580012  RH  020%=      5-min Rain = 0
KCR2 241822Z 32003KT 26/01 A3008 RMK A01 T02570013  RH  020%=      5-min Rain = 0
KCR2 241823Z 26005KT 26/02 A3008 RMK A01 T02570016  RH  021%=      5-min Rain = 0
KCR2 241824Z 25009KT 26/02 A3008 RMK A01 T02570018  RH  021%=      5-min Rain = 0
KCR2 241825Z 24008KT 26/01 A3008 RMK A01 T02590013  RH  020%=      5-min Rain = 0
KCR2 241826Z 21007KT 26/01 A3007 RMK A01 T02580009  RH  020%=      5-min Rain = 0
KCR2 241827Z 22006KT 26/01 A3007 RMK A01 T02580013  RH  020%=      5-min Rain = 0
KCR2 241828Z 25004KT 26/02 A3007 RMK A01 T02590015  RH  020%=      5-min Rain = 0
KCR2 241829Z 26006KT 26/01 A3007 RMK A01 T02600010  RH  020%=      5-min Rain = 0
KCR2 241830Z 29010KT 26/02 A3007 RMK A01 T02610020  RH  021%=      5-min Rain = 0
KCR2 241831Z 29010KT 26/01 A3007 RMK A01 T02620010  RH  019%=      5-min Rain = 0
KCR2 241832Z 30007KT 26/01 A3007 RMK A01 T02610011  RH  020%=      5-min Rain = 0
KCR2 241833Z 30008KT 26/01 A3007 RMK A01 T02600013  RH  020%=      5-min Rain = 0
KCR2 241834Z 31008KT 26/02 A3007 RMK A01 T02620015  RH  020%=      5-min Rain = 0
KCR2 241835Z 32007KT 26/01 A3007 RMK A01 T02620014  RH  020%=      5-min Rain = 0
KCR2 241836Z 31008KT 26/01 A3007 RMK A01 T02620008  RH  019%=      5-min Rain = 0
KCR2 241837Z 31006KT 26/01 A3007 RMK A01 T02600005  RH  019%=      5-min Rain = 0
KCR2 241838Z 28007KT 26/02 A3007 RMK A01 T02600016  RH  020%=      5-min Rain = 0
KCR2 241839Z 26006KT 26/00 A3007 RMK A01 T02640003  RH  018%=      5-min Rain = 0
KCR2 241840Z 33006G12KT 26/01 A3007 RMK A01 T02640014  RH  020%=      5-min Rain = 0
KCR2 241841Z 36003KT 27/00 A3007 RMK A01 T02650003  RH  018%=      5-min Rain = 0
KCR2 241842Z 35003KT 26/01 A3007 RMK A01 T02620005  RH  019%=      5-min Rain = 0
KCR2 241843Z 29003KT 26/00 A3007 RMK A01 T02600002  RH  019%=      5-min Rain = 0
KCR2 241844Z 32006KT 26/01 A3007 RMK A01 T02590005  RH  019%=      5-min Rain = 0
KCR2 241845Z 33008KT 26/M01 A3007 RMK A01 T02611007  RH  017%=      5-min Rain = 0
KCR2 241846Z 31007KT 26/00 A3007 RMK A01 T02610002  RH  018%=      5-min Rain = 0
KCR2 241847Z 31006KT 26/01 A3007 RMK A01 T02620008  RH  019%=      5-min Rain = 0
KCR2 241848Z 31007KT 27/01 A3007 RMK A01 T02650011  RH  019%=      5-min Rain = 0
KCR2 241849Z 30007KT 27/01 A3007 RMK A01 T02660007  RH  018%=      5-min Rain = 0
KCR2 241850Z 30007KT 27/01 A3007 RMK A01 T02660012  RH  019%=      5-min Rain = 0
KCR2 241851Z 32008KT 27/01 A3007 RMK A01 T02660012  RH  019%=      5-min Rain = 0
KCR2 241852Z 31005KT 26/01 A3007 RMK A01 T02640008  RH  019%=      5-min Rain = 0
KCR2 241853Z 29006KT 26/02 A3007 RMK A01 T02620019  RH  021%=      5-min Rain = 0
KCR2 241854Z 27009KT 27/01 A3007 RMK A01 T02650009  RH  019%=      5-min Rain = 0
KCR2 241855Z 29010KT 27/00 A3007 RMK A01 T02670003  RH  018%=      5-min Rain = 0
KCR2 241856Z 29007KT 27/00 A3007 RMK A01 T02650001  RH  018%=      5-min Rain = 0
KCR2 241857Z 29008KT 26/01 A3007 RMK A01 T02630007  RH  019%=      5-min Rain = 0
KCR2 241858Z 29004KT 26/M01 A3007 RMK A01 T02631005  RH  017%=      5-min Rain = 0
KCR2 241859Z 30003KT 26/M01 A3007 RMK A01 T02611005  RH  017%=      5-min Rain = 0
KCR2 241900Z 29007KT 26/00 A3007 RMK A01 T02630002  RH  018%=      5-min Rain = 0
KCR2 241901Z 29009KT 27/M00 A3007 RMK A01 T02661002  RH  017%=      5-min Rain = 0
KCR2 241902Z 29007KT 26/M01 A3007 RMK A01 T02641005  RH  017%=      5-min Rain = 0
KCR2 241903Z 28006KT 26/M01 A3007 RMK A01 T02631008  RH  017%=      5-min Rain = 0
KCR2 241904Z 31005KT 26/00 A3006 RMK A01 T02610000  RH  018%=      5-min Rain = 0
KCR2 241905Z 32006KT 26/00 A3006 RMK A01 T02630003  RH  018%=      5-min Rain = 0
KCR2 241906Z 31006KT 27/01 A3006 RMK A01 T02660011  RH  019%=      5-min Rain = 0
KCR2 241907Z 31007KT 27/01 A3006 RMK A01 T02690009  RH  018%=      5-min Rain = 0
KCR2 241908Z 29006KT 27/01 A3006 RMK A01 T02690005  RH  018%=      5-min Rain = 0
KCR2 241909Z 30006KT 27/01 A3006 RMK A01 T02670007  RH  018%=      5-min Rain = 0
KCR2 241910Z 27005KT 27/00 A3006 RMK A01 T02660003  RH  018%=      5-min Rain = 0
KCR2 241911Z 29005KT 26/00 A3006 RMK A01 T02630004  RH  018%=      5-min Rain = 0
KCR2 241912Z 27008KT 26/M00 A3006 RMK A01 T02631001  RH  018%=      5-min Rain = 0
KCR2 241913Z 28008KT 27/M01 A3006 RMK A01 T02651005  RH  017%=      5-min Rain = 0
KCR2 241914Z 24010KT 27/M01 A3006 RMK A01 T02651006  RH  017%=      5-min Rain = 0
KCR2 241915Z 25006KT 27/M01 A3006 RMK A01 T02651012  RH  016%=      5-min Rain = 0
KCR2 241916Z 27007KT 27/M01 A3006 RMK A01 T02651008  RH  017%=      5-min Rain = 0
KCR2 241917Z 27005KT 27/M01 A3006 RMK A01 T02651012  RH  016%=      5-min Rain = 0
KCR2 241918Z 26007KT 27/M00 A3006 RMK A01 T02661003  RH  017%=      5-min Rain = 0
KCR2 241919Z 29006KT 27/00 A3006 RMK A01 T02670001  RH  018%=      5-min Rain = 0
KCR2 241920Z 29007KT 27/M00 A3006 RMK A01 T02671001  RH  017%=      5-min Rain = 0
KCR2 241921Z 30009KT 27/M00 A3006 RMK A01 T02671001  RH  017%=      5-min Rain = 0
KCR2 241922Z 27010KT 27/M00 A3006 RMK A01 T02681003  RH  017%=      5-min Rain = 0
KCR2 241923Z 26011KT 27/00 A3006 RMK A01 T02690002  RH  018%=      5-min Rain = 0
KCR2 241924Z 27010G15KT 27/M00 A3006 RMK A01 T02711002  RH  017%=      5-min Rain = 0
KCR2 241925Z 27008KT 27/M01 A3006 RMK A01 T02691007  RH  016%=      5-min Rain = 0
KCR2 241926Z 27009KT 27/M00 A3006 RMK A01 T02661004  RH  017%=      5-min Rain = 0
KCR2 241927Z 28009KT 27/M01 A3006 RMK A01 T02661006  RH  017%=      5-min Rain = 0
KCR2 241928Z 29004KT 27/M01 A3006 RMK A01 T02661007  RH  017%=      5-min Rain = 0
KCR2 241929Z 29002KT 27/M00 A3006 RMK A01 T02651003  RH  017%=      5-min Rain = 0
KCR2 241930Z 26003KT 27/M00 A3006 RMK A01 T02661004  RH  017%=      5-min Rain = 0
KCR2 241931Z 26008KT 27/M01 A3006 RMK A01 T02671005  RH  017%=      5-min Rain = 0
KCR2 241932Z 26008KT 27/M01 A3006 RMK A01 T02681007  RH  016%=      5-min Rain = 0
KCR2 241933Z 26008KT 27/M00 A3006 RMK A01 T02691003  RH  017%=      5-min Rain = 0
KCR2 241934Z 27007KT 27/M00 A3006 RMK A01 T02731001  RH  017%=      5-min Rain = 0
KCR2 241935Z 25013KT 28/M00 A3006 RMK A01 T02751002  RH  016%=      5-min Rain = 0
KCR2 241936Z 27014KT 27/M01 A3006 RMK A01 T02741005  RH  016%=      5-min Rain = 0
KCR2 241937Z 28007G12KT 27/M01 A3006 RMK A01 T02731008  RH  016%=      5-min Rain = 0
KCR2 241938Z 31006KT 27/M01 A3005 RMK A01 T02711007  RH  016%=      5-min Rain = 0
KCR2 241939Z 28004KT 27/M01 A3005 RMK A01 T02691010  RH  016%=      5-min Rain = 0
KCR2 241940Z 28003KT 27/M02 A3005 RMK A01 T02661018  RH  015%=      5-min Rain = 0
KCR2 241941Z 28005KT 27/M01 A3005 RMK A01 T02661005  RH  017%=      5-min Rain = 0
KCR2 241942Z 24002KT 27/M00 A3005 RMK A01 T02691001  RH  017%=      5-min Rain = 0
KCR2 241943Z 15001KT 27/M02 A3005 RMK A01 T02711015  RH  015%=      5-min Rain = 0
KCR2 241944Z 17004KT 27/M01 A3005 RMK A01 T02721005  RH  016%=      5-min Rain = 0
KCR2 241945Z 23004KT 27/M01 A3005 RMK A01 T02731010  RH  016%=      5-min Rain = 0
KCR2 241946Z 25006KT 27/M01 A3005 RMK A01 T02721008  RH  016%=      5-min Rain = 0
KCR2 241947Z 24007KT 27/M01 A3005 RMK A01 T02721013  RH  015%=      5-min Rain = 0
KCR2 241948Z 25008KT 27/M01 A3005 RMK A01 T02701010  RH  016%=      5-min Rain = 0
KCR2 241949Z 28008KT 27/M01 A3005 RMK A01 T02711011  RH  016%=      5-min Rain = 0
KCR2 241950Z 27009KT 27/M00 A3005 RMK A01 T02741004  RH  016%=      5-min Rain = 0
KCR2 241951Z 26011KT 28/M01 A3004 RMK A01 T02771011  RH  015%=      5-min Rain = 0
KCR2 241952Z 24009KT 28/M02 A3004 RMK A01 T02761017  RH  015%=      5-min Rain = 0
KCR2 241953Z 28012KT 28/M01 A3004 RMK A01 T02751013  RH  015%=      5-min Rain = 0
KCR2 241954Z 27010KT 28/M02 A3004 RMK A01 T02761015  RH  015%=      5-min Rain = 0
KCR2 241955Z 28008KT 28/M02 A3004 RMK A01 T02751023  RH  014%=      5-min Rain = 0
KCR2 241956Z 25010KT 27/M02 A3004 RMK A01 T02731024  RH  014%=      5-min Rain = 0
KCR2 241957Z 24014KT 27/M02 A3004 RMK A01 T02731022  RH  014%=      5-min Rain = 0
KCR2 241958Z 24013KT 27/M02 A3004 RMK A01 T02741023  RH  014%=      5-min Rain = 0
KCR2 241959Z 23009KT 27/M03 A3004 RMK A01 T02731031  RH  013%=      5-min Rain = 0
KCR2 242000Z 22011KT 27/M02 A3004 RMK A01 T02721021  RH  015%=      5-min Rain = 0
KCR2 242001Z 24010KT 27/M02 A3004 RMK A01 T02741016  RH  015%=      5-min Rain = 0
KCR2 242002Z 24013KT 27/M02 A3004 RMK A01 T02741018  RH  015%=      5-min Rain = 0
KCR2 242003Z 26011KT 27/M03 A3004 RMK A01 T02741026  RH  014%=      5-min Rain = 0
KCR2 242004Z 26010KT 27/M03 A3004 RMK A01 T02711026  RH  014%=      5-min Rain = 0
KCR2 242005Z 26010KT 27/M02 A3004 RMK A01 T02711021  RH  015%=      5-min Rain = 0
KCR2 242006Z 25008KT 27/M02 A3004 RMK A01 T02731016  RH  015%=      5-min Rain = 0
KCR2 242007Z 27010KT 27/M02 A3004 RMK A01 T02731019  RH  015%=      5-min Rain = 0
KCR2 242008Z 27008KT 27/M02 A3004 RMK A01 T02721023  RH  014%=      5-min Rain = 0
KCR2 242009Z 25012KT 27/M01 A3004 RMK A01 T02711011  RH  016%=      5-min Rain = 0
KCR2 242010Z 27011KT 28/M01 A3004 RMK A01 T02761014  RH  015%=      5-min Rain = 0
KCR2 242011Z 26010KT 28/M02 A3004 RMK A01 T02761019  RH  014%=      5-min Rain = 0
KCR2 242012Z 27009KT 27/M02 A3004 RMK A01 T02731024  RH  014%=      5-min Rain = 0
KCR2 242013Z 26010KT 27/M02 A3004 RMK A01 T02721018  RH  015%=      5-min Rain = 0
KCR2 242014Z 27009KT 27/M02 A3004 RMK A01 T02721019  RH  015%=      5-min Rain = 0
KCR2 242015Z 27010KT 27/M02 A3004 RMK A01 T02721017  RH  015%=      5-min Rain = 0
KCR2 242016Z 27010KT 27/M02 A3004 RMK A01 T02721021  RH  015%=      5-min Rain = 0
KCR2 242017Z 26008KT 27/M02 A3004 RMK A01 T02721017  RH  015%=      5-min Rain = 0
KCR2 242018Z 24011KT 27/M01 A3004 RMK A01 T02731014  RH  015%=      5-min Rain = 0
KCR2 242019Z 25009KT 28/M02 A3003 RMK A01 T02751021  RH  014%=      5-min Rain = 0
KCR2 242020Z 28007KT 27/M02 A3003 RMK A01 T02731020  RH  015%=      5-min Rain = 0
KCR2 242021Z 24006KT 27/M02 A3003 RMK A01 T02731021  RH  014%=      5-min Rain = 0
KCR2 242022Z 24011KT 27/M02 A3003 RMK A01 T02731019  RH  015%=      5-min Rain = 0
KCR2 242023Z 25009KT 27/M03 A3003 RMK A01 T02741028  RH  014%=      5-min Rain = 0
KCR2 242024Z 25009KT 27/M02 A3003 RMK A01 T02731021  RH  014%=      5-min Rain = 0
KCR2 242025Z 26007KT 28/M02 A3003 RMK A01 T02751020  RH  014%=      5-min Rain = 0
KCR2 242026Z 27009KT 28/M02 A3003 RMK A01 T02761020  RH  014%=      5-min Rain = 0
KCR2 242027Z 26009KT 28/M02 A3003 RMK A01 T02761023  RH  014%=      5-min Rain = 0
KCR2 242028Z 27012KT 28/M02 A3003 RMK A01 T02761024  RH  014%=      5-min Rain = 0
KCR2 242029Z 27012G22KT 28/M03 A3003 RMK A01 T02771030  RH  013%=      5-min Rain = 0
KCR2 242030Z 26017KT 28/M03 A3003 RMK A01 T02751031  RH  013%=      5-min Rain = 0
KCR2 242031Z 26011KT 27/M03 A3003 RMK A01 T02741029  RH  014%=      5-min Rain = 0
KCR2 242032Z 26009KT 27/M03 A3003 RMK A01 T02731034  RH  013%=      5-min Rain = 0
KCR2 242033Z 28008KT 27/M03 A3003 RMK A01 T02711028  RH  014%=      5-min Rain = 0
KCR2 242034Z 28009KT 27/M03 A3003 RMK A01 T02721028  RH  014%=      5-min Rain = 0
KCR2 242035Z 30009KT 27/M03 A3003 RMK A01 T02721025  RH  014%=      5-min Rain = 0
KCR2 242036Z 28008KT 27/M02 A3003 RMK A01 T02731023  RH  014%=      5-min Rain = 0
KCR2 242037Z 28008KT 27/M03 A3002 RMK A01 T02741031  RH  013%=      5-min Rain = 0
KCR2 242038Z 28006KT 27/M03 A3002 RMK A01 T02731031  RH  013%=      5-min Rain = 0
KCR2 242039Z 28005KT 27/M03 A3002 RMK A01 T02721028  RH  014%=      5-min Rain = 0
KCR2 242040Z 25004KT 27/M03 A3002 RMK A01 T02721031  RH  013%=      5-min Rain = 0
KCR2 242041Z 23005KT 27/M02 A3002 RMK A01 T02731024  RH  014%=      5-min Rain = 0
KCR2 242042Z 27006KT 28/M02 A3002 RMK A01 T02761017  RH  015%=      5-min Rain = 0
KCR2 242043Z 26010KT 28/M03 A3002 RMK A01 T02771031  RH  013%=      5-min Rain = 0
KCR2 242044Z 28011G16KT 28/M03 A3002 RMK A01 T02771028  RH  013%=      5-min Rain = 0
KCR2 242045Z 26013KT 28/M03 A3002 RMK A01 T02781026  RH  014%=      5-min Rain = 0
KCR2 242046Z 27012KT 28/M03 A3002 RMK A01 T02791028  RH  013%=      5-min Rain = 0
KCR2 242047Z 27010KT 28/M03 A3002 RMK A01 T02781032  RH  013%=      5-min Rain = 0
KCR2 242048Z 28008KT 28/M03 A3002 RMK A01 T02761030  RH  013%=      5-min Rain = 0
KCR2 242049Z 29010G15KT 28/M03 A3002 RMK A01 T02761029  RH  013%=      5-min Rain = 0
KCR2 242050Z 26010KT 28/M03 A3002 RMK A01 T02771027  RH  013%=      5-min Rain = 0
KCR2 242051Z 26008KT 28/M03 A3002 RMK A01 T02781027  RH  013%=      5-min Rain = 0
KCR2 242052Z 25005KT 28/M04 A3002 RMK A01 T02781035  RH  013%=      5-min Rain = 0
KCR2 242053Z 25006KT 28/M03 A3002 RMK A01 T02761030  RH  013%=      5-min Rain = 0
KCR2 242054Z 27009KT 28/M03 A3002 RMK A01 T02761029  RH  013%=      5-min Rain = 0
KCR2 242055Z 28007KT 28/M02 A3002 RMK A01 T02781021  RH  014%=      5-min Rain = 0
KCR2 242056Z 30011KT 28/M02 A3002 RMK A01 T02811021  RH  014%=      5-min Rain = 0
KCR2 242057Z 31010KT 28/M03 A3002 RMK A01 T02801026  RH  013%=      5-min Rain = 0
KCR2 242058Z 30009KT 28/M02 A3002 RMK A01 T02801017  RH  014%=      5-min Rain = 0
KCR2 242059Z 29009KT 28/M03 A3002 RMK A01 T02801027  RH  013%=      5-min Rain = 0
KCR2 242100Z 30005KT 28/M03 A3001 RMK A01 T02771030  RH  013%=      5-min Rain = 0
KCR2 242101Z 30004KT 28/M03 A3001 RMK A01 T02761027  RH  014%=      5-min Rain = 0
KCR2 242102Z 26011KT 28/M02 A3001 RMK A01 T02761023  RH  014%=      5-min Rain = 0
KCR2 242103Z 25008KT 28/M03 A3001 RMK A01 T02771031  RH  013%=      5-min Rain = 0
KCR2 242104Z 24007KT 28/M02 A3001 RMK A01 T02761023  RH  014%=      5-min Rain = 0
KCR2 242105Z 25008KT 28/M03 A3001 RMK A01 T02781027  RH  013%=      5-min Rain = 0
KCR2 242106Z 27004KT 28/M02 A3001 RMK A01 T02781022  RH  014%=      5-min Rain = 0
KCR2 242107Z 27006KT 28/M03 A3001 RMK A01 T02791026  RH  013%=      5-min Rain = 0
KCR2 242108Z 27005KT 28/M03 A3001 RMK A01 T02771030  RH  013%=      5-min Rain = 0
KCR2 242109Z 28010KT 28/M02 A3001 RMK A01 T02771021  RH  014%=      5-min Rain = 0
KCR2 242110Z 28008KT 28/M03 A3001 RMK A01 T02781025  RH  014%=      5-min Rain = 0
KCR2 242111Z 28008G13KT 28/M02 A3001 RMK A01 T02781022  RH  014%=      5-min Rain = 0
KCR2 242112Z 26007KT 28/M02 A3001 RMK A01 T02791022  RH  014%=      5-min Rain = 0
KCR2 242113Z 29010KT 28/M02 A3001 RMK A01 T02791019  RH  014%=      5-min Rain = 0
KCR2 242114Z 30009KT 28/M02 A3001 RMK A01 T02811021  RH  014%=      5-min Rain = 0
KCR2 242115Z 30009KT 28/M02 A3001 RMK A01 T02811018  RH  014%=      5-min Rain = 0
KCR2 242116Z 30005KT 28/M01 A3001 RMK A01 T02821011  RH  015%=      5-min Rain = 0
KCR2 242117Z 29006KT 29/M02 A3001 RMK A01 T02851019  RH  014%=      5-min Rain = 0
KCR2 242118Z 30008KT 28/M02 A3001 RMK A01 T02831022  RH  014%=      5-min Rain = 0
KCR2 242119Z 29008KT 28/M02 A3001 RMK A01 T02821020  RH  014%=      5-min Rain = 0
KCR2 242120Z 30007KT 28/M03 A3001 RMK A01 T02801027  RH  013%=      5-min Rain = 0
KCR2 242121Z 31007KT 28/M03 A3001 RMK A01 T02781025  RH  014%=      5-min Rain = 0
KCR2 242122Z 28007KT 28/M02 A3001 RMK A01 T02781017  RH  014%=      5-min Rain = 0
KCR2 242123Z 28009KT 28/M02 A3001 RMK A01 T02811015  RH  014%=      5-min Rain = 0
KCR2 242124Z 29011KT 28/M02 A3001 RMK A01 T02831018  RH  014%=      5-min Rain = 0
KCR2 242125Z 30009KT 28/M03 A3001 RMK A01 T02821026  RH  013%=      5-min Rain = 0
KCR2 242126Z 28008KT 28/M02 A3001 RMK A01 T02801023  RH  014%=      5-min Rain = 0
KCR2 242127Z 27006KT 28/M02 A3001 RMK A01 T02781024  RH  014%=      5-min Rain = 0
KCR2 242128Z 27011KT 28/M02 A3001 RMK A01 T02791023  RH  014%=      5-min Rain = 0
KCR2 242129Z 29008KT 28/M02 A3001 RMK A01 T02791022  RH  014%=      5-min Rain = 0
KCR2 242130Z 29008KT 28/M01 A30 RMK A01 T02811013  RH  015%=      5-min Rain = 0
KCR2 242131Z 29009KT 28/M02 A30 RMK A01 T02831019  RH  014%=      5-min Rain = 0
KCR2 242132Z 29010KT 28/M02 A3001 RMK A01 T02821022  RH  014%=      5-min Rain = 0
KCR2 242133Z 28008KT 28/M03 A30 RMK A01 T02811027  RH  013%=      5-min Rain = 0
KCR2 242134Z 28010KT 28/M02 A3001 RMK A01 T02801018  RH  014%=      5-min Rain = 0
KCR2 242135Z 27009KT 28/M02 A30 RMK A01 T02811021  RH  014%=      5-min Rain = 0
KCR2 242136Z 28010KT 28/M02 A3001 RMK A01 T02821016  RH  014%=      5-min Rain = 0
KCR2 242137Z 29009KT 28/M02 A3001 RMK A01 T02831023  RH  013%=      5-min Rain = 0
KCR2 242138Z 29007KT 28/M02 A30 RMK A01 T02811023  RH  014%=      5-min Rain = 0
KCR2 242139Z 28007KT 28/M02 A30 RMK A01 T02811022  RH  014%=      5-min Rain = 0
KCR2 242140Z 27008KT 28/M02 A30 RMK A01 T02811024  RH  014%=      5-min Rain = 0
KCR2 242141Z 27007KT 28/M02 A30 RMK A01 T02801020  RH  014%=      5-min Rain = 0
KCR2 242142Z 27006KT 28/M02 A30 RMK A01 T02801023  RH  014%=      5-min Rain = 0
KCR2 242143Z 26006KT 28/M03 A30 RMK A01 T02801026  RH  013%=      5-min Rain = 0
KCR2 242144Z 23003KT 28/M03 A30 RMK A01 T02791031  RH  013%=      5-min Rain = 0
KCR2 242145Z 25003KT 28/M03 A30 RMK A01 T02781031  RH  013%=      5-min Rain = 0
KCR2 242146Z 24004KT 28/M03 A30 RMK A01 T02771031  RH  013%=      5-min Rain = 0
KCR2 242147Z 27005KT 28/M02 A30 RMK A01 T02771023  RH  014%=      5-min Rain = 0
KCR2 242148Z 29007KT 28/M02 A30 RMK A01 T02781023  RH  014%=      5-min Rain = 0
KCR2 242149Z 26005KT 28/M02 A30 RMK A01 T02791016  RH  014%=      5-min Rain = 0
KCR2 242150Z 25004KT 28/M03 A30 RMK A01 T02801026  RH  013%=      5-min Rain = 0
KCR2 242151Z 22005KT 28/M02 A30 RMK A01 T02811022  RH  014%=      5-min Rain = 0
KCR2 242152Z 20006KT 28/M02 A30 RMK A01 T02801023  RH  014%=      5-min Rain = 0
KCR2 242153Z 20004KT 28/M03 A30 RMK A01 T02791031  RH  013%=      5-min Rain = 0
KCR2 242154Z 22008KT 28/M02 A30 RMK A01 T02781023  RH  014%=      5-min Rain = 0
KCR2 242155Z 26007KT 28/M03 A30 RMK A01 T02781025  RH  014%=      5-min Rain = 0
KCR2 242156Z 27007KT 28/M01 A30 RMK A01 T02801012  RH  015%=      5-min Rain = 0
KCR2 242157Z 28009KT 28/M02 A30 RMK A01 T02821020  RH  014%=      5-min Rain = 0
KCR2 242158Z 29005KT 28/M03 A30 RMK A01 T02811026  RH  013%=      5-min Rain = 0
KCR2 242159Z 30003KT 28/M03 A30 RMK A01 T02791029  RH  013%=      5-min Rain = 0
KCR2 242200Z 25004KT 28/M02 A30 RMK A01 T02791018  RH  014%=      5-min Rain = 0
KCR2 242201Z 24007KT 28/M02 A30 RMK A01 T02811017  RH  014%=      5-min Rain = 0
KCR2 242202Z 29006KT 28/M02 A30 RMK A01 T02821021  RH  014%=      5-min Rain = 0
KCR2 242203Z 29006KT 28/M02 A30 RMK A01 T02831020  RH  014%=      5-min Rain = 0
KCR2 242204Z 29003KT 28/M03 A2999 RMK A01 T02831025  RH  013%=      5-min Rain = 0
KCR2 242205Z 29002KT 28/M03 A2999 RMK A01 T02821028  RH  013%=      5-min Rain = 0
KCR2 242206Z 27003KT 28/M03 A2999 RMK A01 T02821025  RH  013%=      5-min Rain = 0
KCR2 242207Z 27003KT 28/M03 A2999 RMK A01 T02831025  RH  013%=      5-min Rain = 0
KCR2 242208Z 26006KT 28/M02 A2999 RMK A01 T02831021  RH  014%=      5-min Rain = 0
KCR2 242209Z 26007KT 28/M02 A30 RMK A01 T02831022  RH  014%=      5-min Rain = 0
KCR2 242210Z 26007KT 28/M02 A2999 RMK A01 T02831021  RH  014%=      5-min Rain = 0
KCR2 242211Z 25003G8KT 28/M02 A2999 RMK A01 T02831021  RH  014%=      5-min Rain = 0
KCR2 242212Z 25005KT 28/M02 A2999 RMK A01 T02831024  RH  013%=      5-min Rain = 0
KCR2 242213Z 25006KT 28/M02 A2999 RMK A01 T02841015  RH  014%=      5-min Rain = 0
KCR2 242214Z 26004KT 28/M02 A2999 RMK A01 T02841024  RH  013%=      5-min Rain = 0
KCR2 242215Z 24004KT 28/M02 A2999 RMK A01 T02841019  RH  014%=      5-min Rain = 0
KCR2 242216Z 24005KT 28/M02 A2999 RMK A01 T02831023  RH  013%=      5-min Rain = 0
KCR2 242217Z 26007KT 28/M01 A2999 RMK A01 T02841009  RH  015%=      5-min Rain = 0
KCR2 242218Z 24007KT 29/M03 A2999 RMK A01 T02861025  RH  013%=      5-min Rain = 0
KCR2 242219Z 25007KT 28/M02 A2999 RMK A01 T02841023  RH  013%=      5-min Rain = 0
KCR2 242220Z 25006KT 28/M02 A2999 RMK A01 T02841020  RH  014%=      5-min Rain = 0
KCR2 242221Z 22006KT 28/M03 A2999 RMK A01 T02841025  RH  013%=      5-min Rain = 0
KCR2 242222Z 25006KT 28/M02 A2999 RMK A01 T02841024  RH  013%=      5-min Rain = 0
KCR2 242223Z 27004KT 28/M03 A2999 RMK A01 T02841026  RH  013%=      5-min Rain = 0
KCR2 242224Z 26005KT 28/M02 A2999 RMK A01 T02841024  RH  013%=      5-min Rain = 0
KCR2 242225Z 23005KT 28/M03 A2999 RMK A01 T02841029  RH  013%=      5-min Rain = 0
KCR2 242226Z 24004KT 28/M03 A2999 RMK A01 T02831030  RH  013%=      5-min Rain = 0
KCR2 242227Z 25008KT 28/M02 A2999 RMK A01 T02831022  RH  014%=      5-min Rain = 0
KCR2 242228Z 29007KT 29/M01 A2999 RMK A01 T02851014  RH  014%=      5-min Rain = 0
KCR2 242229Z 25007KT 29/M01 A2999 RMK A01 T02891009  RH  014%=      5-min Rain = 0
KCR2 242230Z 25009KT 29/M02 A2999 RMK A01 T02901017  RH  014%=      5-min Rain = 0
KCR2 242231Z 28007KT 29/M01 A2999 RMK A01 T02911013  RH  014%=      5-min Rain = 0
KCR2 242232Z 26007KT 29/M02 A2999 RMK A01 T02911016  RH  014%=      5-min Rain = 0
KCR2 242233Z 25009KT 29/M01 A2999 RMK A01 T02911011  RH  014%=      5-min Rain = 0
KCR2 242234Z 24009KT 29/M02 A2999 RMK A01 T02911018  RH  013%=      5-min Rain = 0
KCR2 242235Z 28008KT 29/M02 A2999 RMK A01 T02891023  RH  013%=      5-min Rain = 0
KCR2 242236Z 27007KT 29/M03 A2999 RMK A01 T02871028  RH  013%=      5-min Rain = 0
KCR2 242237Z 27007KT 29/M03 A2999 RMK A01 T02851029  RH  013%=      5-min Rain = 0
KCR2 242238Z 26009KT 29/M02 A2999 RMK A01 T02851022  RH  013%=      5-min Rain = 0
KCR2 242239Z 25009KT 29/M02 A2999 RMK A01 T02861019  RH  014%=      5-min Rain = 0
KCR2 242240Z 24008KT 29/M03 A2999 RMK A01 T02861027  RH  013%=      5-min Rain = 0
KCR2 242241Z 24007KT 29/M02 A2999 RMK A01 T02851022  RH  013%=      5-min Rain = 0
KCR2 242242Z 26007KT 29/M02 A2999 RMK A01 T02861019  RH  014%=      5-min Rain = 0
KCR2 242243Z 25011KT 29/M02 A2999 RMK A01 T02871017  RH  014%=      5-min Rain = 0
KCR2 242244Z 24012KT 29/M03 A2999 RMK A01 T02881027  RH  013%=      5-min Rain = 0
KCR2 242245Z 25012KT 29/M03 A2999 RMK A01 T02871027  RH  013%=      5-min Rain = 0
KCR2 242246Z 25010KT 29/M03 A2999 RMK A01 T02851025  RH  013%=      5-min Rain = 0
KCR2 242247Z 25009KT 29/M03 A2999 RMK A01 T02861025  RH  013%=      5-min Rain = 0
KCR2 242248Z 24011KT 29/M02 A2999 RMK A01 T02871021  RH  013%=      5-min Rain = 0
KCR2 242249Z 26011KT 29/M02 A2999 RMK A01 T02881022  RH  013%=      5-min Rain = 0
KCR2 242250Z 26012KT 29/M02 A2999 RMK A01 T02881022  RH  013%=      5-min Rain = 0
KCR2 242251Z 26014KT 29/M03 A2999 RMK A01 T02881029  RH  012%=      5-min Rain = 0
KCR2 242252Z 25010KT 29/M03 A2999 RMK A01 T02871030  RH  012%=      5-min Rain = 0
KCR2 242253Z 26010KT 29/M03 A2999 RMK A01 T02861027  RH  013%=      5-min Rain = 0
KCR2 242254Z 28007KT 29/M03 A2999 RMK A01 T02861028  RH  013%=      5-min Rain = 0
KCR2 242255Z 28008KT 29/M02 A2999 RMK A01 T02861024  RH  013%=      5-min Rain = 0
KCR2 242256Z 28007KT 29/M02 A2999 RMK A01 T02871021  RH  013%=      5-min Rain = 0
KCR2 242257Z 27009KT 29/M02 A2999 RMK A01 T02891018  RH  013%=      5-min Rain = 0
KCR2 242258Z 26012KT 29/M02 A2999 RMK A01 T02901016  RH  014%=      5-min Rain = 0
KCR2 242259Z 26013KT 29/M03 A2999 RMK A01 T02901027  RH  012%=      5-min Rain = 0
KCR2 242300Z 27011KT 29/M03 A2999 RMK A01 T02881029  RH  012%=      5-min Rain = 0
KCR2 242301Z 26009KT 29/M03 A2999 RMK A01 T02861028  RH  013%=      5-min Rain = 0
KCR2 242302Z 26011KT 29/M03 A2999 RMK A01 T02861026  RH  013%=      5-min Rain = 0
KCR2 242303Z 28013KT 29/M03 A2999 RMK A01 T02861025  RH  013%=      5-min Rain = 0
KCR2 242304Z 29011KT 29/M02 A2999 RMK A01 T02871024  RH  013%=      5-min Rain = 0
KCR2 242305Z 29011KT 29/M02 A2999 RMK A01 T02881020  RH  013%=      5-min Rain = 0
KCR2 242306Z 29014KT 29/M02 A2999 RMK A01 T02881024  RH  013%=      5-min Rain = 0
KCR2 242307Z 29015KT 29/M03 A2999 RMK A01 T02871025  RH  013%=      5-min Rain = 0
KCR2 242308Z 29015KT 29/M03 A2999 RMK A01 T02861029  RH  013%=      5-min Rain = 0
KCR2 242309Z 29012KT 29/M03 A2999 RMK A01 T02851025  RH  013%=      5-min Rain = 0
KCR2 242310Z 29011KT 29/M02 A2999 RMK A01 T02851023  RH  013%=      5-min Rain = 0
KCR2 242311Z 28011KT 29/M03 A2999 RMK A01 T02851028  RH  013%=      5-min Rain = 0
KCR2 242312Z 28010KT 29/M03 A2999 RMK A01 T02851031  RH  013%=      5-min Rain = 0
KCR2 242313Z 29010KT 29/M02 A2999 RMK A01 T02851023  RH  013%=      5-min Rain = 0
KCR2 242314Z 30007KT 29/M03 A2999 RMK A01 T02851030  RH  013%=      5-min Rain = 0
KCR2 242315Z 30010KT 29/M02 A2999 RMK A01 T02851023  RH  013%=      5-min Rain = 0
KCR2 242316Z 29010KT 29/M03 A2999 RMK A01 T02851025  RH  013%=      5-min Rain = 0
KCR2 242317Z 29008KT 29/M03 A2999 RMK A01 T02851030  RH  013%=      5-min Rain = 0
KCR2 242318Z 29007KT 29/M02 A2999 RMK A01 T02851024  RH  013%=      5-min Rain = 0
KCR2 242319Z 29009KT 29/M02 A2999 RMK A01 T02851022  RH  013%=      5-min Rain = 0
KCR2 242320Z 28010KT 29/M02 A2999 RMK A01 T02861021  RH  013%=      5-min Rain = 0
KCR2 242321Z 26013KT 29/M03 A2999 RMK A01 T02871027  RH  013%=      5-min Rain = 0
KCR2 242322Z 27012KT 29/M03 A2999 RMK A01 T02871025  RH  013%=      5-min Rain = 0
KCR2 242323Z 28013G18KT 29/M03 A2999 RMK A01 T02861027  RH  013%=      5-min Rain = 0
KCR2 242324Z 29013KT 29/M03 A2999 RMK A01 T02861026  RH  013%=      5-min Rain = 0
KCR2 242325Z 29013KT 29/M03 A2999 RMK A01 T02851027  RH  013%=      5-min Rain = 0
KCR2 242326Z 28013KT 29/M02 A2999 RMK A01 T02851023  RH  013%=      5-min Rain = 0
KCR2 242327Z 28012KT 29/M03 A2999 RMK A01 T02851032  RH  012%=      5-min Rain = 0
KCR2 242328Z 27011KT 28/M03 A2999 RMK A01 T02841032  RH  012%=      5-min Rain = 0
KCR2 242329Z 27011KT 28/M03 A2999 RMK A01 T02841028  RH  013%=      5-min Rain = 0
KCR2 242330Z 27012KT 28/M03 A2999 RMK A01 T02841029  RH  013%=      5-min Rain = 0
KCR2 242331Z 27012KT 28/M03 A2999 RMK A01 T02841030  RH  013%=      5-min Rain = 0
KCR2 242332Z 26011KT 28/M03 A2999 RMK A01 T02841032  RH  013%=      5-min Rain = 0
KCR2 242333Z 25010KT 28/M03 A2999 RMK A01 T02841027  RH  013%=      5-min Rain = 0
KCR2 242334Z 25014KT 28/M02 A2999 RMK A01 T02841024  RH  013%=      5-min Rain = 0
KCR2 242335Z 25013KT 28/M03 A2999 RMK A01 T02841030  RH  013%=      5-min Rain = 0
KCR2 242336Z 25012KT 28/M03 A2999 RMK A01 T02841030  RH  013%=      5-min Rain = 0
KCR2 242337Z 26010KT 28/M03 A2999 RMK A01 T02831034  RH  012%=      5-min Rain = 0
KCR2 242338Z 26012KT 28/M03 A2999 RMK A01 T02831032  RH  013%=      5-min Rain = 0
KCR2 242339Z 25012KT 28/M03 A2999 RMK A01 T02831034  RH  012%=      5-min Rain = 0
KCR2 242340Z 26011KT 28/M03 A2999 RMK A01 T02831030  RH  013%=      5-min Rain = 0
KCR2 242341Z 25008KT 28/M03 A2999 RMK A01 T02831028  RH  013%=      5-min Rain = 0
KCR2 242342Z 25010KT 28/M03 A2999 RMK A01 T02831026  RH  013%=      5-min Rain = 0
KCR2 242343Z 26010KT 28/M03 A2999 RMK A01 T02841030  RH  013%=      5-min Rain = 0
KCR2 242344Z 26010KT 28/M03 A2999 RMK A01 T02831029  RH  013%=      5-min Rain = 0
KCR2 242345Z 27009KT 28/M03 A2999 RMK A01 T02831033  RH  012%=      5-min Rain = 0
KCR2 242346Z 27008G13KT 28/M03 A2999 RMK A01 T02821029  RH  013%=      5-min Rain = 0
KCR2 242347Z 29010KT 28/M03 A2999 RMK A01 T02821027  RH  013%=      5-min Rain = 0
KCR2 242348Z 29011KT 28/M03 A2999 RMK A01 T02831027  RH  013%=      5-min Rain = 0
KCR2 242349Z 29010KT 28/M03 A2999 RMK A01 T02821031  RH  013%=      5-min Rain = 0
KCR2 242350Z 29011KT 28/M03 A2999 RMK A01 T02811032  RH  013%=      5-min Rain = 0
KCR2 242351Z 29009KT 28/M03 A2999 RMK A01 T02811028  RH  013%=      5-min Rain = 0
KCR2 242352Z 30009KT 28/M03 A2999 RMK A01 T02801029  RH  013%=      5-min Rain = 0
KCR2 242353Z 30006KT 28/M02 A2999 RMK A01 T02801022  RH  014%=      5-min Rain = 0
KCR2 242354Z 30010KT 28/M03 A2999 RMK A01 T02801027  RH  013%=      5-min Rain = 0
KCR2 242355Z 28009KT 28/M03 A2999 RMK A01 T02801030  RH  013%=      5-min Rain = 0
KCR2 242356Z 27009KT 28/M03 A2999 RMK A01 T02801032  RH  013%=      5-min Rain = 0
KCR2 242357Z 28009KT 28/M03 A2999 RMK A01 T02801030  RH  013%=      5-min Rain = 0
KCR2 242358Z 28009KT 28/M03 A2999 RMK A01 T02801029  RH  013%=      5-min Rain = 0
KCR2 242359Z 27009KT 28/M03 A2999 RMK A01 T02801029  RH  013%=      5-min Rain = 0
KCR2 250000Z 28010KT 28/M03 A2999 RMK A01 T02801034  RH  013%=      5-min Rain = 0
KCR2 250001Z 28008KT 28/M03 A2999 RMK A01 T02801034  RH  013%=      5-min Rain = 0
KCR2 250002Z 27007KT 28/M04 A2999 RMK A01 T02791036  RH  012%=      5-min Rain = 0
KCR2 250003Z 28006KT 28/M04 A2999 RMK A01 T02791035  RH  013%=      5-min Rain = 0
KCR2 250004Z 28007KT 28/M04 A2999 RMK A01 T02791036  RH  012%=      5-min Rain = 0
KCR2 250005Z 28006KT 28/M03 A2999 RMK A01 T02791033  RH  013%=      5-min Rain = 0
KCR2 250006Z 27006KT 28/M03 A2999 RMK A01 T02791027  RH  013%=      5-min Rain = 0
KCR2 250007Z 27007KT 28/M03 A2999 RMK A01 T02791026  RH  013%=      5-min Rain = 0
KCR2 250008Z 29008KT 28/M02 A2999 RMK A01 T02791024  RH  014%=      5-min Rain = 0
KCR2 250009Z 29008KT 28/M03 A2999 RMK A01 T02791025  RH  014%=      5-min Rain = 0
KCR2 250010Z 28007KT 28/M03 A2999 RMK A01 T02771026  RH  014%=      5-min Rain = 0
KCR2 250011Z 28007KT 28/M03 A2999 RMK A01 T02761025  RH  014%=      5-min Rain = 0
KCR2 250012Z 27010KT 28/M03 A2999 RMK A01 T02761030  RH  013%=      5-min Rain = 0
KCR2 250013Z 28010KT 28/M04 A2999 RMK A01 T02761036  RH  013%=      5-min Rain = 0
KCR2 250014Z 29007KT 28/M03 A2999 RMK A01 T02771028  RH  013%=      5-min Rain = 0
KCR2 250015Z 29008KT 28/M03 A2999 RMK A01 T02761026  RH  014%=      5-min Rain = 0
KCR2 250016Z 29008KT 28/M03 A2999 RMK A01 T02761030  RH  013%=      5-min Rain = 0
KCR2 250017Z 28008KT 28/M03 A2999 RMK A01 T02751031  RH  013%=      5-min Rain = 0
KCR2 250018Z 30007KT 28/M03 A2999 RMK A01 T02751029  RH  013%=      5-min Rain = 0
KCR2 250019Z 29006KT 27/M03 A2999 RMK A01 T02741029  RH  014%=      5-min Rain = 0
KCR2 250020Z 28006KT 27/M02 A2999 RMK A01 T02741022  RH  014%=      5-min Rain = 0
KCR2 250021Z 29006KT 27/M02 A2999 RMK A01 T02731020  RH  015%=      5-min Rain = 0
KCR2 250022Z 30006KT 27/M02 A2999 RMK A01 T02721019  RH  015%=      5-min Rain = 0
KCR2 250023Z 29008KT 27/M02 A2999 RMK A01 T02711024  RH  014%=      5-min Rain = 0
KCR2 250024Z 29007KT 27/M03 A2999 RMK A01 T02711030  RH  014%=      5-min Rain = 0
KCR2 250025Z 29007KT 27/M03 A2999 RMK A01 T02711029  RH  014%=      5-min Rain = 0
KCR2 250026Z 29008KT 27/M03 A2999 RMK A01 T02701027  RH  014%=      5-min Rain = 0
KCR2 250027Z 30008KT 27/M04 A30 RMK A01 T02701035  RH  013%=      5-min Rain = 0
KCR2 250028Z 30007KT 27/M03 A30 RMK A01 T02701033  RH  013%=      5-min Rain = 0
KCR2 250029Z 29006KT 27/M03 A30 RMK A01 T02691031  RH  014%=      5-min Rain = 0
KCR2 250030Z 30006KT 27/M03 A30 RMK A01 T02681027  RH  014%=      5-min Rain = 0
KCR2 250031Z 29006KT 27/M03 A30 RMK A01 T02671026  RH  014%=      5-min Rain = 0
KCR2 250032Z 29006KT 27/M03 A30 RMK A01 T02661025  RH  015%=      5-min Rain = 0
KCR2 250033Z 29006KT 27/M02 A30 RMK A01 T02651022  RH  015%=      5-min Rain = 0
KCR2 250034Z 29005KT 26/M02 A30 RMK A01 T02641020  RH  015%=      5-min Rain = 0
KCR2 250035Z 29005KT 26/M02 A30 RMK A01 T02641023  RH  015%=      5-min Rain = 0
KCR2 250036Z 29005KT 26/M02 A30 RMK A01 T02631021  RH  015%=      5-min Rain = 0
KCR2 250037Z 29005KT 26/M02 A30 RMK A01 T02631019  RH  016%=      5-min Rain = 0
KCR2 250038Z 29004KT 26/M02 A30 RMK A01 T02621018  RH  016%=      5-min Rain = 0
KCR2 250039Z 29004KT 26/M02 A30 RMK A01 T02621019  RH  016%=      5-min Rain = 0
KCR2 250040Z 28003KT 26/M02 A30 RMK A01 T02611020  RH  016%=      5-min Rain = 0
KCR2 250041Z 28003KT 26/M02 A30 RMK A01 T02611023  RH  015%=      5-min Rain = 0
KCR2 250042Z 28003KT 26/M02 A30 RMK A01 T02621024  RH  015%=      5-min Rain = 0
KCR2 250043Z 28003KT 26/M02 A30 RMK A01 T02621020  RH  016%=      5-min Rain = 0
KCR2 250044Z 28003KT 26/M02 A30 RMK A01 T02621021  RH  015%=      5-min Rain = 0
KCR2 250045Z 28003KT 26/M03 A30 RMK A01 T02621025  RH  015%=      5-min Rain = 0
KCR2 250046Z 27003KT 26/M02 A30 RMK A01 T02621023  RH  015%=      5-min Rain = 0
KCR2 250047Z 28004KT 26/M03 A30 RMK A01 T02621028  RH  015%=      5-min Rain = 0
KCR2 250048Z 28003KT 26/M02 A30 RMK A01 T02621019  RH  016%=      5-min Rain = 0
KCR2 250049Z 28003KT 26/M02 A30 RMK A01 T02591021  RH  016%=      5-min Rain = 0
KCR2 250050Z 28003KT 26/M03 A30 RMK A01 T02581025  RH  015%=      5-min Rain = 0
KCR2 250051Z 28003KT 26/M02 A30 RMK A01 T02571019  RH  016%=      5-min Rain = 0
KCR2 250052Z 28003KT 26/M02 A30 RMK A01 T02561015  RH  017%=      5-min Rain = 0
KCR2 250053Z 28003KT 25/M02 A30 RMK A01 T02531017  RH  017%=      5-min Rain = 0
KCR2 250054Z 28003KT 25/M02 A30 RMK A01 T02521024  RH  016%=      5-min Rain = 0
KCR2 250055Z 28003KT 25/M03 A30 RMK A01 T02511025  RH  016%=      5-min Rain = 0
KCR2 250056Z 29003KT 25/M02 A30 RMK A01 T02511018  RH  017%=      5-min Rain = 0
KCR2 250057Z 29004KT 25/M01 A30 RMK A01 T02501014  RH  017%=      5-min Rain = 0
KCR2 250058Z 29003KT 25/M02 A30 RMK A01 T02481016  RH  017%=      5-min Rain = 0
KCR2 250059Z 30003KT 25/M02 A30 RMK A01 T02471023  RH  017%=      5-min Rain = 0
KCR2 250100Z 31003KT 25/M02 A30 RMK A01 T02461024  RH  017%=      5-min Rain = 0
KCR2 250101Z 31003KT 25/M02 A30 RMK A01 T02461024  RH  017%=      5-min Rain = 0
KCR2 250102Z 32003KT 25/M03 A30 RMK A01 T02451025  RH  017%=      5-min Rain = 0
KCR2 250103Z 32004KT 24/M03 A3001 RMK A01 T02441027  RH  017%=      5-min Rain = 0
KCR2 250104Z 32003KT 24/M03 A3001 RMK A01 T02431028  RH  016%=      5-min Rain = 0
KCR2 250105Z 32003KT 24/M03 A3001 RMK A01 T02421029  RH  016%=      5-min Rain = 0
KCR2 250106Z 32004KT 24/M03 A3001 RMK A01 T02411031  RH  016%=      5-min Rain = 0
KCR2 250107Z 32004KT 24/M03 A3001 RMK A01 T02411031  RH  016%=      5-min Rain = 0
KCR2 250108Z 32003KT 24/M03 A3001 RMK A01 T02401031  RH  016%=      5-min Rain = 0
KCR2 250109Z 32004KT 24/M03 A3001 RMK A01 T02391031  RH  016%=      5-min Rain = 0
KCR2 250110Z 33004KT 24/M03 A3001 RMK A01 T02381031  RH  016%=      5-min Rain = 0
KCR2 250111Z 32004KT 24/M03 A3001 RMK A01 T02371032  RH  016%=      5-min Rain = 0
KCR2 250112Z 32004KT 24/M03 A3001 RMK A01 T02371031  RH  017%=      5-min Rain = 0
KCR2 250113Z 32004KT 24/M03 A3001 RMK A01 T02361029  RH  017%=      5-min Rain = 0
KCR2 250114Z 32005KT 24/M03 A3001 RMK A01 T02361026  RH  017%=      5-min Rain = 0
KCR2 250115Z 32005KT 24/M03 A3001 RMK A01 T02351027  RH  017%=      5-min Rain = 0
KCR2 250116Z 32004KT 24/M03 A3001 RMK A01 T02351026  RH  018%=      5-min Rain = 0
KCR2 250117Z 32005KT 24/M02 A3001 RMK A01 T02351023  RH  018%=      5-min Rain = 0
KCR2 250118Z 32004KT 23/M02 A3001 RMK A01 T02341022  RH  018%=      5-min Rain = 0
KCR2 250119Z 32004KT 23/M02 A3001 RMK A01 T02341018  RH  019%=      5-min Rain = 0
KCR2 250120Z 32004KT 23/M01 A3001 RMK A01 T02331014  RH  019%=      5-min Rain = 0
KCR2 250121Z 32004KT 23/M02 A3001 RMK A01 T02331015  RH  019%=      5-min Rain = 0
KCR2 250122Z 32004KT 23/M02 A3001 RMK A01 T02321017  RH  019%=      5-min Rain = 0
KCR2 250123Z 32004KT 23/M02 A3001 RMK A01 T02321017  RH  019%=      5-min Rain = 0
KCR2 250124Z 32004KT 23/M02 A3001 RMK A01 T02311019  RH  019%=      5-min Rain = 0
KCR2 250125Z 32004KT 23/M02 A3001 RMK A01 T02311019  RH  019%=      5-min Rain = 0
KCR2 250126Z 32004KT 23/M02 A3001 RMK A01 T02311020  RH  019%=      5-min Rain = 0
KCR2 250127Z 31004KT 23/M02 A3001 RMK A01 T02311020  RH  019%=      5-min Rain = 0
KCR2 250128Z 31004KT 23/M02 A3001 RMK A01 T02311019  RH  019%=      5-min Rain = 0
KCR2 250129Z 31004KT 23/M02 A3001 RMK A01 T02311017  RH  019%=      5-min Rain = 0
KCR2 250130Z 31003KT 23/M01 A3001 RMK A01 T02311012  RH  020%=      5-min Rain = 0
KCR2 250131Z 31003KT 23/M01 A3001 RMK A01 T02301011  RH  020%=      5-min Rain = 0
KCR2 250132Z 31003KT 23/M02 A3001 RMK A01 T02301016  RH  019%=      5-min Rain = 0
KCR2 250133Z 30003KT 23/M02 A3001 RMK A01 T02301017  RH  019%=      5-min Rain = 0
KCR2 250134Z 31003KT 23/M02 A3001 RMK A01 T02301016  RH  019%=      5-min Rain = 0
KCR2 250135Z 31003KT 23/M02 A3001 RMK A01 T02311016  RH  019%=      5-min Rain = 0
KCR2 250136Z 31003KT 23/M02 A3001 RMK A01 T02311017  RH  019%=      5-min Rain = 0
KCR2 250137Z 31003KT 23/M02 A3001 RMK A01 T02311016  RH  019%=      5-min Rain = 0
KCR2 250138Z 31002KT 23/M02 A3001 RMK A01 T02311015  RH  019%=      5-min Rain = 0
KCR2 250139Z 30002KT 23/M01 A3001 RMK A01 T02301014  RH  020%=      5-min Rain = 0
KCR2 250140Z 31002KT 23/M02 A3001 RMK A01 T02291015  RH  020%=      5-min Rain = 0
KCR2 250141Z 31002KT 23/M02 A3002 RMK A01 T02291016  RH  019%=      5-min Rain = 0
KCR2 250142Z 31003KT 23/M02 A3002 RMK A01 T02291019  RH  019%=      5-min Rain = 0
KCR2 250143Z 32004KT 23/M02 A3002 RMK A01 T02291021  RH  019%=      5-min Rain = 0
KCR2 250144Z 32004KT 23/M02 A3002 RMK A01 T02291016  RH  019%=      5-min Rain = 0
KCR2 250145Z 32003KT 23/M01 A3002 RMK A01 T02291010  RH  020%=      5-min Rain = 0
KCR2 250146Z 32002KT 23/01 A3002 RMK A01 T02260006  RH  023%=      5-min Rain = 0
KCR2 250147Z 31003KT 22/M00 A3002 RMK A01 T02231004  RH  022%=      5-min Rain = 0
KCR2 250148Z 31004KT 22/M01 A3002 RMK A01 T02231012  RH  021%=      5-min Rain = 0
KCR2 250149Z 31003KT 22/M01 A3002 RMK A01 T02241005  RH  022%=      5-min Rain = 0
KCR2 250150Z 31003KT 22/01 A3002 RMK A01 T02210009  RH  024%=      5-min Rain = 0
KCR2 250151Z 30002KT 22/00 A3002 RMK A01 T02180002  RH  024%=      5-min Rain = 0
KCR2 250152Z 30002KT 22/M01 A3002 RMK A01 T02181005  RH  023%=      5-min Rain = 0
KCR2 250153Z 28002KT 22/M01 A3002 RMK A01 T02191009  RH  022%=      5-min Rain = 0
KCR2 250154Z 30002KT 22/M01 A3002 RMK A01 T02211013  RH  021%=      5-min Rain = 0
KCR2 250155Z 30002KT 22/M01 A3002 RMK A01 T02221012  RH  021%=      5-min Rain = 0
KCR2 250156Z 31001KT 22/M00 A3002 RMK A01 T02221002  RH  023%=      5-min Rain = 0
KCR2 250157Z 30001KT 22/M01 A3003 RMK A01 T02211007  RH  022%=      5-min Rain = 0
KCR2 250158Z 29002KT 22/M01 A3003 RMK A01 T02201006  RH  022%=      5-min Rain = 0
KCR2 250159Z 29001KT 22/M01 A3003 RMK A01 T02191008  RH  022%=      5-min Rain = 0
KCR2 250200Z 28002KT 22/M01 A3003 RMK A01 T02181005  RH  022%=      5-min Rain = 0
KCR2 250201Z 27001KT 22/M01 A3003 RMK A01 T02181011  RH  022%=      5-min Rain = 0
KCR2 250202Z 26002KT 22/M01 A3003 RMK A01 T02191013  RH  021%=      5-min Rain = 0
KCR2 250203Z 24002KT 22/M02 A3003 RMK A01 T02201015  RH  021%=      5-min Rain = 0
KCR2 250204Z 26002KT 22/M02 A3003 RMK A01 T02221020  RH  020%=      5-min Rain = 0
KCR2 250205Z 27003KT 22/M02 A3003 RMK A01 T02241023  RH  019%=      5-min Rain = 0
KCR2 250206Z 29002KT 22/M02 A3003 RMK A01 T02241024  RH  019%=      5-min Rain = 0
KCR2 250207Z 28002KT 23/M02 A3003 RMK A01 T02251020  RH  019%=      5-min Rain = 0
KCR2 250208Z 28002KT 22/M02 A3003 RMK A01 T02241016  RH  020%=      5-min Rain = 0
KCR2 250209Z 26002KT 22/M01 A3003 RMK A01 T02231013  RH  021%=      5-min Rain = 0
KCR2 250210Z 25001KT 22/M01 A3003 RMK A01 T02231013  RH  021%=      5-min Rain = 0
KCR2 250211Z 27001KT 22/M01 A3003 RMK A01 T02221012  RH  021%=      5-min Rain = 0
KCR2 250212Z 28001KT 22/M01 A3003 RMK A01 T02211013  RH  021%=      5-min Rain = 0
KCR2 250213Z 26001KT 22/M01 A3003 RMK A01 T02211012  RH  021%=      5-min Rain = 0
KCR2 250214Z 24000KT 22/M01 A3003 RMK A01 T02191011  RH  021%=      5-min Rain = 0
KCR2 250215Z 25001KT 22/M01 A3003 RMK A01 T02181011  RH  022%=      5-min Rain = 0
KCR2 250216Z 23001KT 22/M01 A3003 RMK A01 T02161007  RH  022%=      5-min Rain = 0
KCR2 250217Z 21001KT 22/M01 A3004 RMK A01 T02151005  RH  023%=      5-min Rain = 0
KCR2 250218Z 23001KT 21/M02 A3004 RMK A01 T02141017  RH  021%=      5-min Rain = 0
KCR2 250219Z 28000KT 22/M02 A3004 RMK A01 T02151016  RH  021%=      5-min Rain = 0
KCR2 250220Z 00000KT 22/M01 A3004 RMK A01 T02151006  RH  023%=      5-min Rain = 0
KCR2 250221Z 24000KT 22/M01 A3004 RMK A01 T02151009  RH  022%=      5-min Rain = 0
KCR2 250222Z 23000KT 21/00 A3004 RMK A01 T02140002  RH  024%=      5-min Rain = 0
KCR2 250223Z 25000KT 21/M01 A3004 RMK A01 T02121009  RH  023%=      5-min Rain = 0
KCR2 250224Z 30000KT 21/00 A3004 RMK A01 T02110002  RH  025%=      5-min Rain = 0
KCR2 250225Z 30000KT 21/00 A3004 RMK A01 T020800-0  RH  025%=      5-min Rain = 0
KCR2 250226Z 00000KT 21/M01 A3004 RMK A01 T02071011  RH  023%=      5-min Rain = 0
KCR2 250227Z 00000KT 21/M01 A3004 RMK A01 T02081009  RH  023%=      5-min Rain = 0
KCR2 250228Z 00000KT 21/01 A3004 RMK A01 T02070007  RH  026%=      5-min Rain = 0
KCR2 250229Z 00000KT 21/M00 A3004 RMK A01 T02051003  RH  025%=      5-min Rain = 0
KCR2 250230Z 17000KT 21/M01 A3004 RMK A01 T02051012  RH  023%=      5-min Rain = 0
KCR2 250231Z 16001KT 21/M02 A3004 RMK A01 T02071018  RH  022%=      5-min Rain = 0
KCR2 250232Z 16001KT 21/01 A3004 RMK A01 T02080007  RH  026%=      5-min Rain = 0
KCR2 250233Z 17001KT 20/M01 A3005 RMK A01 T02031005  RH  025%=      5-min Rain = 0
KCR2 250234Z 17002KT 20/01 A3005 RMK A01 T02000005  RH  027%=      5-min Rain = 0
KCR2 250235Z 16002KT 20/01 A3005 RMK A01 T01950008  RH  028%=      5-min Rain = 0
KCR2 250236Z 15002KT 19/01 A3005 RMK A01 T01920011  RH  030%=      5-min Rain = 0
KCR2 250237Z 15002KT 19/02 A3005 RMK A01 T01870020  RH  033%=      5-min Rain = 0
KCR2 250238Z 15002KT 18/01 A3005 RMK A01 T01830012  RH  032%=      5-min Rain = 0
KCR2 250239Z 14002KT 18/01 A3005 RMK A01 T01820006  RH  031%=      5-min Rain = 0
KCR2 250240Z 14002KT 18/00 A3005 RMK A01 T01830004  RH  030%=      5-min Rain = 0
KCR2 250241Z 14002KT 18/01 A3005 RMK A01 T01840006  RH  030%=      5-min Rain = 0
KCR2 250242Z 15002KT 18/02 A3005 RMK A01 T01830016  RH  033%=      5-min Rain = 0
KCR2 250243Z 14002KT 18/02 A3005 RMK A01 T01780020  RH  035%=      5-min Rain = 0
KCR2 250244Z 14003KT 18/01 A3005 RMK A01 T01760013  RH  033%=      5-min Rain = 0
KCR2 250245Z 14003KT 18/01 A3005 RMK A01 T01760013  RH  033%=      5-min Rain = 0
KCR2 250246Z 14003KT 18/01 A3005 RMK A01 T01760009  RH  032%=      5-min Rain = 0
KCR2 250247Z 14003KT 18/01 A3005 RMK A01 T01770011  RH  033%=      5-min Rain = 0
KCR2 250248Z 14003KT 18/01 A3005 RMK A01 T01770012  RH  033%=      5-min Rain = 0
KCR2 250249Z 14003KT 18/01 A3005 RMK A01 T01760014  RH  034%=      5-min Rain = 0
KCR2 250250Z 14003KT 18/01 A3005 RMK A01 T01750011  RH  033%=      5-min Rain = 0
KCR2 250251Z 14003KT 18/01 A3005 RMK A01 T01750013  RH  034%=      5-min Rain = 0
KCR2 250252Z 14003KT 17/01 A3005 RMK A01 T01740013  RH  034%=      5-min Rain = 0
KCR2 250253Z 14003KT 17/01 A3005 RMK A01 T01740013  RH  034%=      5-min Rain = 0
KCR2 250254Z 15003KT 18/01 A3005 RMK A01 T01750010  RH  033%=      5-min Rain = 0
KCR2 250255Z 15003KT 18/01 A3005 RMK A01 T01770011  RH  033%=      5-min Rain = 0
KCR2 250256Z 15004KT 18/02 A3005 RMK A01 T01780015  RH  033%=      5-min Rain = 0
KCR2 250257Z 15004KT 18/02 A3005 RMK A01 T01780016  RH  034%=      5-min Rain = 0
KCR2 250258Z 16003KT 18/02 A3005 RMK A01 T01770019  RH  035%=      5-min Rain = 0
KCR2 250259Z 15004KT 17/02 A3005 RMK A01 T01740018  RH  035%=      5-min Rain = 0
KCR2 250300Z 15004KT 17/02 A3005 RMK A01 T01720015  RH  035%=      5-min Rain = 0
KCR2 250301Z 16004KT 17/01 A3006 RMK A01 T01720013  RH  034%=      5-min Rain = 0
KCR2 250302Z 16003KT 17/01 A3006 RMK A01 T01730012  RH  034%=      5-min Rain = 0
KCR2 250303Z 16003KT 17/01 A3006 RMK A01 T01730014  RH  034%=      5-min Rain = 0
KCR2 250304Z 16003KT 17/02 A3006 RMK A01 T01730015  RH  035%=      5-min Rain = 0
KCR2 250305Z 16004KT 17/01 A3006 RMK A01 T01720013  RH  034%=      5-min Rain = 0
KCR2 250306Z 16004KT 17/01 A3006 RMK A01 T01730014  RH  034%=      5-min Rain = 0
KCR2 250307Z 16004KT 17/02 A3006 RMK A01 T01720017  RH  035%=      5-min Rain = 0
KCR2 250308Z 16003KT 17/02 A3006 RMK A01 T01710016  RH  035%=      5-min Rain = 0
KCR2 250309Z 16004KT 17/02 A3006 RMK A01 T01690018  RH  036%=      5-min Rain = 0
KCR2 250310Z 16004KT 17/01 A3006 RMK A01 T01690012  RH  035%=      5-min Rain = 0
KCR2 250311Z 16004KT 17/01 A3006 RMK A01 T01700012  RH  034%=      5-min Rain = 0
KCR2 250312Z 15004KT 17/01 A3006 RMK A01 T01710011  RH  034%=      5-min Rain = 0
KCR2 250313Z 16003KT 17/01 A3006 RMK A01 T01720012  RH  034%=      5-min Rain = 0
KCR2 250314Z 16003KT 17/01 A3006 RMK A01 T01720013  RH  034%=      5-min Rain = 0
KCR2 250315Z 15003KT 17/02 A3006 RMK A01 T01720015  RH  035%=      5-min Rain = 0
KCR2 250316Z 15003KT 17/01 A3006 RMK A01 T01720010  RH  034%=      5-min Rain = 0
KCR2 250317Z 15003KT 17/M00 A3006 RMK A01 T01741001  RH  031%=      5-min Rain = 0
KCR2 250318Z 15003KT 18/M01 A3006 RMK A01 T01791005  RH  029%=      5-min Rain = 0
KCR2 250319Z 15003KT 19/M01 A3006 RMK A01 T01851005  RH  028%=      5-min Rain = 0
KCR2 250320Z 15003KT 19/M00 A3006 RMK A01 T01881002  RH  028%=      5-min Rain = 0
KCR2 250321Z 15003KT 19/M00 A3006 RMK A01 T01891002  RH  028%=      5-min Rain = 0
KCR2 250322Z 15003KT 19/M00 A3006 RMK A01 T01891004  RH  027%=      5-min Rain = 0
KCR2 250323Z 15003KT 19/M00 A3006 RMK A01 T01901004  RH  027%=      5-min Rain = 0
KCR2 250324Z 14003KT 19/02 A3006 RMK A01 T01890020  RH  032%=      5-min Rain = 0
KCR2 250325Z 15002KT 18/02 A3006 RMK A01 T01800017  RH  033%=      5-min Rain = 0
KCR2 250326Z 15002KT 18/01 A3006 RMK A01 T01760008  RH  032%=      5-min Rain = 0
KCR2 250327Z 15003KT 18/00 A3006 RMK A01 T01750002  RH  031%=      5-min Rain = 0
KCR2 250328Z 15003KT 18/00 A3006 RMK A01 T01760003  RH  031%=      5-min Rain = 0
KCR2 250329Z 14003KT 18/01 A3006 RMK A01 T01760012  RH  033%=      5-min Rain = 0
KCR2 250330Z 14002KT 18/01 A3007 RMK A01 T01750006  RH  032%=      5-min Rain = 0
KCR2 250331Z 13002KT 18/01 A3007 RMK A01 T01750008  RH  032%=      5-min Rain = 0
KCR2 250332Z 13002KT 17/01 A3007 RMK A01 T01740009  RH  033%=      5-min Rain = 0
KCR2 250333Z 15002KT 17/01 A3007 RMK A01 T01690012  RH  035%=      5-min Rain = 0
KCR2 250334Z 15002KT 17/00 A3007 RMK A01 T01650003  RH  033%=      5-min Rain = 0
KCR2 250335Z 15002KT 17/01 A3007 RMK A01 T01650006  RH  034%=      5-min Rain = 0
KCR2 250336Z 15002KT 16/01 A3007 RMK A01 T01640013  RH  036%=      5-min Rain = 0
KCR2 250337Z 14002KT 16/01 A3007 RMK A01 T01620007  RH  035%=      5-min Rain = 0
KCR2 250338Z 14002KT 16/01 A3007 RMK A01 T01610008  RH  035%=      5-min Rain = 0
KCR2 250339Z 14002KT 16/01 A3007 RMK A01 T01600008  RH  036%=      5-min Rain = 0
KCR2 250340Z 14002KT 16/01 A3007 RMK A01 T01590009  RH  036%=      5-min Rain = 0
KCR2 250341Z 15002KT 16/01 A3007 RMK A01 T01580010  RH  037%=      5-min Rain = 0
KCR2 250342Z 15003KT 16/01 A3007 RMK A01 T01570012  RH  037%=      5-min Rain = 0
KCR2 250343Z 16003KT 16/01 A3007 RMK A01 T01550012  RH  038%=      5-min Rain = 0
KCR2 250344Z 16003KT 15/01 A3007 RMK A01 T01530013  RH  039%=      5-min Rain = 0
KCR2 250345Z 17004KT 15/01 A3007 RMK A01 T01530011  RH  038%=      5-min Rain = 0
KCR2 250346Z 17004KT 15/01 A3007 RMK A01 T01530008  RH  037%=      5-min Rain = 0
KCR2 250347Z 17004KT 16/01 A3007 RMK A01 T01580005  RH  035%=      5-min Rain = 0
KCR2 250348Z 17004KT 16/02 A3007 RMK A01 T01620016  RH  037%=      5-min Rain = 0
KCR2 250349Z 17004KT 16/01 A3007 RMK A01 T01630006  RH  035%=      5-min Rain = 0
KCR2 250350Z 17004KT 17/00 A3007 RMK A01 T01670000  RH  032%=      5-min Rain = 0
KCR2 250351Z 17004KT 17/00 A3007 RMK A01 T01720001  RH  031%=      5-min Rain = 0
KCR2 250352Z 18004KT 18/01 A3007 RMK A01 T01750006  RH  032%=      5-min Rain = 0
KCR2 250353Z 18005KT 18/01 A3007 RMK A01 T01760011  RH  033%=      5-min Rain = 0
KCR2 250354Z 18005KT 18/01 A3007 RMK A01 T01760013  RH  033%=      5-min Rain = 0
KCR2 250355Z 18005KT 18/02 A3007 RMK A01 T01760020  RH  035%=      5-min Rain = 0
KCR2 250356Z 18004KT 17/02 A3007 RMK A01 T01730021  RH  036%=      5-min Rain = 0
KCR2 250357Z 18005KT 17/02 A3007 RMK A01 T01720016  RH  035%=      5-min Rain = 0
KCR2 250358Z 18004KT 17/02 A3007 RMK A01 T01710018  RH  036%=      5-min Rain = 0
KCR2 250359Z 18004KT 17/02 A3007 RMK A01 T01700019  RH  036%=      5-min Rain = 0
KCR2 250400Z 18004KT 17/02 A3007 RMK A01 T01690019  RH  036%=      5-min Rain = 0
KCR2 250401Z 17003KT 17/02 A3008 RMK A01 T01680021  RH  037%=      5-min Rain = 0
KCR2 250402Z 17003KT 17/02 A3008 RMK A01 T01660020  RH  038%=      5-min Rain = 0
KCR2 250403Z 17003KT 17/02 A3008 RMK A01 T01650016  RH  036%=      5-min Rain = 0
KCR2 250404Z 17003KT 17/02 A3008 RMK A01 T01650016  RH  037%=      5-min Rain = 0
KCR2 250405Z 16002KT 17/01 A3008 RMK A01 T01660010  RH  035%=      5-min Rain = 0
KCR2 250406Z 16002KT 17/01 A3008 RMK A01 T01670006  RH  034%=      5-min Rain = 0
KCR2 250407Z 16002KT 17/00 A3008 RMK A01 T01690004  RH  033%=      5-min Rain = 0
KCR2 250408Z 16002KT 17/00 A3008 RMK A01 T01720002  RH  032%=      5-min Rain = 0
KCR2 250409Z 16002KT 17/01 A3008 RMK A01 T01730008  RH  033%=      5-min Rain = 0
KCR2 250410Z 16002KT 17/01 A3008 RMK A01 T01690014  RH  035%=      5-min Rain = 0
KCR2 250411Z 15002KT 16/01 A3008 RMK A01 T01640005  RH  034%=      5-min Rain = 0
KCR2 250412Z 16002KT 16/M00 A3008 RMK A01 T01641002  RH  032%=      5-min Rain = 0
KCR2 250413Z 14002KT 17/M00 A3008 RMK A01 T01681004  RH  031%=      5-min Rain = 0
KCR2 250414Z 14002KT 17/M00 A3008 RMK A01 T01711003  RH  031%=      5-min Rain = 0
KCR2 250415Z 15001KT 17/01 A3008 RMK A01 T01700013  RH  035%=      5-min Rain = 0
KCR2 250416Z 15001KT 17/01 A3008 RMK A01 T01660005  RH  033%=      5-min Rain = 0
KCR2 250417Z 15001KT 16/01 A3008 RMK A01 T01630011  RH  036%=      5-min Rain = 0
KCR2 250418Z 13000KT 16/02 A3008 RMK A01 T01590016  RH  038%=      5-min Rain = 0
KCR2 250419Z 11000KT 16/02 A3008 RMK A01 T01560015  RH  038%=      5-min Rain = 0
KCR2 250420Z 05002KT 15/02 A3008 RMK A01 T01500023  RH  042%=      5-min Rain = 0
KCR2 250421Z 06001KT 14/02 A3008 RMK A01 T01430022  RH  044%=      5-min Rain = 0
KCR2 250422Z 07002KT 14/03 A3008 RMK A01 T01400027  RH  047%=      5-min Rain = 0
KCR2 250423Z 10002KT 14/03 A3008 RMK A01 T01370027  RH  047%=      5-min Rain = 0
KCR2 250424Z 12001KT 14/03 A3008 RMK A01 T01370026  RH  047%=      5-min Rain = 0
KCR2 250425Z 12001KT 14/03 A3008 RMK A01 T01360027  RH  048%=      5-min Rain = 0
KCR2 250426Z 09001KT 14/03 A3008 RMK A01 T01350028  RH  048%=      5-min Rain = 0
KCR2 250427Z 07001KT 13/03 A3008 RMK A01 T01330032  RH  050%=      5-min Rain = 0
KCR2 250428Z 09002KT 13/03 A3008 RMK A01 T01290033  RH  052%=      5-min Rain = 0
KCR2 250429Z 10002KT 13/03 A3008 RMK A01 T01280034  RH  053%=      5-min Rain = 0
KCR2 250430Z 11001KT 13/03 A3008 RMK A01 T01280033  RH  052%=      5-min Rain = 0
KCR2 250431Z 11002KT 13/04 A3008 RMK A01 T01280035  RH  053%=      5-min Rain = 0
KCR2 250432Z 15001KT 13/04 A3008 RMK A01 T01280037  RH  054%=      5-min Rain = 0
KCR2 250433Z 18001KT 13/04 A3008 RMK A01 T01270038  RH  055%=      5-min Rain = 0
KCR2 250434Z 16001KT 13/04 A3008 RMK A01 T01260039  RH  055%=      5-min Rain = 0
KCR2 250435Z 15003KT 13/04 A3008 RMK A01 T01250039  RH  056%=      5-min Rain = 0
KCR2 250436Z 16004KT 13/04 A3008 RMK A01 T01260039  RH  055%=      5-min Rain = 0
KCR2 250437Z 17004KT 13/04 A3008 RMK A01 T01270040  RH  055%=      5-min Rain = 0
KCR2 250438Z 18004KT 13/03 A3008 RMK A01 T01280029  RH  051%=      5-min Rain = 0
KCR2 250439Z 18003KT 13/03 A3008 RMK A01 T01330032  RH  051%=      5-min Rain = 0
KCR2 250440Z 20003KT 13/04 A3008 RMK A01 T01330038  RH  052%=      5-min Rain = 0
KCR2 250441Z 21002KT 13/04 A3008 RMK A01 T01290040  RH  055%=      5-min Rain = 0
KCR2 250442Z 21002KT 12/04 A3008 RMK A01 T01240040  RH  056%=      5-min Rain = 0
KCR2 250443Z 20003KT 12/04 A3008 RMK A01 T01220037  RH  056%=      5-min Rain = 0
KCR2 250444Z 18004KT 12/04 A3008 RMK A01 T01220035  RH  055%=      5-min Rain = 0
KCR2 250445Z 18004KT 12/04 A3008 RMK A01 T01220036  RH  056%=      5-min Rain = 0
KCR2 250446Z 18004KT 12/04 A3008 RMK A01 T01230037  RH  055%=      5-min Rain = 0
KCR2 250447Z 17004KT 13/04 A3008 RMK A01 T01260036  RH  054%=      5-min Rain = 0
KCR2 250448Z 18006KT 13/04 A3008 RMK A01 T01300035  RH  052%=      5-min Rain = 0
KCR2 250449Z 18006KT 14/04 A3008 RMK A01 T01350035  RH  051%=      5-min Rain = 0
KCR2 250450Z 19005KT 14/04 A3008 RMK A01 T01370035  RH  050%=      5-min Rain = 0
KCR2 250451Z 20004KT 14/04 A3008 RMK A01 T01380037  RH  051%=      5-min Rain = 0
KCR2 250452Z 21005KT 14/04 A3009 RMK A01 T01350042  RH  053%=      5-min Rain = 0
KCR2 250453Z 21005KT 13/04 A3009 RMK A01 T01300039  RH  054%=      5-min Rain = 0
KCR2 250454Z 22004KT 13/04 A3009 RMK A01 T01270039  RH  055%=      5-min Rain = 0
KCR2 250455Z 21004KT 12/04 A3009 RMK A01 T01210037  RH  056%=      5-min Rain = 0
KCR2 250456Z 20003KT 12/04 A3009 RMK A01 T01180037  RH  058%=      5-min Rain = 0
KCR2 250457Z 22001KT 12/04 A3009 RMK A01 T01180038  RH  058%=      5-min Rain = 0
KCR2 250458Z 21001KT 12/04 A3009 RMK A01 T01190039  RH  058%=      5-min Rain = 0
KCR2 250459Z 20003KT 12/04 A3009 RMK A01 T01200042  RH  059%=      5-min Rain = 0

Page generated in 0.1195 seconds.